PORTS® Data Listing: 8452660 Newport, RI

CO-OPS RAW PORTS DATA

************************      PRELIMINARY DATA      ************************** 

     THIS RAW DATA HAS NOT BEEN SUBJECT TO THE NATIONAL OCEAN SERVICE'S        
     QUALITY CONTROL OR QUALITY ASSURANCE PROCEDURES AND DOES NOT MEET         
     THE CRITERIA AND STANDARDS OF OFFICIAL NATIONAL OCEAN SERVICE             
     DATA.  IT IS RELEASED FOR LIMITED PUBLIC USE AS PRELIMINARY DATA TO       
     BE USED ONLY WITH APPROPRIATE CAUTION.                                    

************************      PRELIMINARY DATA      ************************** 


       CD   -   Calendar date
       T    -   Time
       TZ   -   Timezone
       PW   -   Predicted water level (feet above MLLW)
       OW   -   Observed water level (feet above MLLW)
       WS   -   Wind speed (knots)
       WD   -   Wind direction (degrees true)
       WG   -   Wind gust (knots)
       AT   -   Air temperature (degrees farenheit)
       WT   -   Water temperature (degrees farenheit)
       AP   -   Air pressure (millibars)
       SA   -   Salinty (PSU - Practical Salinity Units)
       SG   -   Specific gravity
       RH   -   Relative humidity
       AG   -   Air gap (feet)
       VI   -   Visibility (nautical miles)

       ** NOTE **
       A variable that has its data fields filled with "9"s, indicates that
       data was not collected for that sample period.
       **********


STATION NAME: Newport (8452660)
****************************************************************************************************
    CD       T    TZ    PW     OW    WS   WD   WG    AT    WT    AP    SA    SG     RH    AG   VI
****************************************************************************************************
2020/01/15 18:42 EST    0.09   0.54    3  284    6  43.7  38.7 1020.4 33.3  1.027 -99.9 -99.99 -9.99
2020/01/15 18:48 EST    0.13   0.54    3  286    4  43.5  38.7 1020.4 33.2  1.027 -99.9 -99.99 -9.99
2020/01/15 18:54 EST    0.17   0.59    2  314    3  43.3  38.5 1020.5 33.2  1.027 -99.9 -99.99 -9.99
2020/01/15 19:00 EST    0.21   0.55    1  319    2  42.8  38.5 1020.5 33.2  1.027 -99.9 -99.99 -9.99
2020/01/15 19:06 EST    0.25   0.63    1  317    2  42.8  38.3 1020.6 33.2  1.027 -99.9 -99.99 -9.99
2020/01/15 19:12 EST    0.30   0.63    2  285    2  43.0  38.3 1020.5 33.2  1.027 -99.9 -99.99 -9.99
2020/01/15 19:18 EST    0.35   0.73    2  302    3  43.3  38.3 1020.5 33.2  1.027 -99.9 -99.99 -9.99
2020/01/15 19:24 EST    0.40   0.72    2  301    3  43.2  38.3 1020.4 33.2  1.027 -99.9 -99.99 -9.99
2020/01/15 19:30 EST    0.45   0.74    2  275    3  43.0  38.3 1020.5 33.3  1.027 -99.9 -99.99 -9.99
2020/01/15 19:36 EST    0.51   0.81    0  352    2  42.8  38.3 1020.5 33.3  1.027 -99.9 -99.99 -9.99
2020/01/15 19:42 EST    0.57   0.81    1   35    1  42.8  38.3 1020.4 33.3  1.027 -99.9 -99.99 -9.99
2020/01/15 19:48 EST    0.63   0.91    1   18    1  42.4  38.3 1020.4 33.3  1.027 -99.9 -99.99 -9.99
2020/01/15 19:54 EST    0.70   0.93    1    5    1  41.2  38.3 1020.3 33.3  1.027 -99.9 -99.99 -9.99
2020/01/15 20:00 EST    0.77   1.06    2  330    3  41.0  38.3 1020.3 33.3  1.027 -99.9 -99.99 -9.99
2020/01/15 20:06 EST    0.84   1.13    0  325    2  41.5  38.3 1020.4 33.2  1.027 -99.9 -99.99 -9.99
2020/01/15 20:12 EST    0.92   1.21    2   46    2  40.3  38.3 1020.3 33.3  1.027 -99.9 -99.99 -9.99
2020/01/15 20:18 EST    1.00   1.33    0   27    2  40.5  38.3 1020.3 33.2  1.027 -99.9 -99.99 -9.99
2020/01/15 20:24 EST    1.08   1.40    2    6    2  39.7  38.3 1020.2 33.3  1.027 -99.9 -99.99 -9.99
2020/01/15 20:30 EST    1.17   1.46    1  343    3  40.1  38.3 1020.2 33.4  1.027 -99.9 -99.99 -9.99
2020/01/15 20:36 EST    1.26   1.56    2  125    3  39.7  38.3 1020.3 33.2  1.027 -99.9 -99.99 -9.99
2020/01/15 20:42 EST    1.35   1.65    0   99    2  39.6  38.5 1020.3 33.3  1.027 -99.9 -99.99 -9.99
2020/01/15 20:48 EST    1.44   1.72    0   20    1  39.2  38.5 1020.2 33.2  1.027 -99.9 -99.99 -9.99
2020/01/15 20:54 EST    1.54   1.89    0   10    0  39.4  38.3 1020.1 33.3  1.027 -99.9 -99.99 -9.99
2020/01/15 21:00 EST    1.64   2.00    1   79    1  39.2  38.3 1020.1 33.3  1.027 -99.9 -99.99 -9.99
2020/01/15 21:06 EST    1.74   2.06    0   77    2  39.4  38.3 1020.1 33.3  1.027 -99.9 -99.99 -9.99
2020/01/15 21:12 EST    1.84   2.24    0   15    1  38.7  38.1 1020.0 33.2  1.027 -99.9 -99.99 -9.99
2020/01/15 21:18 EST    1.95   2.35    1   15    1  38.7  38.1 1019.9 33.3  1.027 -99.9 -99.99 -9.99
2020/01/15 21:24 EST    2.05   2.48    0   62    1  38.1  38.3 1019.9 33.2  1.027 -99.9 -99.99 -9.99
2020/01/15 21:30 EST    2.16   2.62    0   12    1  37.9  38.3 1020.0 33.1  1.027 -99.9 -99.99 -9.99
2020/01/15 21:36 EST    2.27   2.71    0   94    2  38.5  38.3 1020.0 33.2  1.027 -99.9 -99.99 -9.99
2020/01/15 21:42 EST    2.37   2.78    0   75    0  38.3  38.3 1020.0 33.1  1.027 -99.9 -99.99 -9.99
2020/01/15 21:48 EST    2.48   2.96    1  103    1  37.9  38.3 1019.9 33.1  1.027 -99.9 -99.99 -9.99
2020/01/15 21:54 EST    2.58   3.05    1  168    1  37.8  38.3 1019.9 33.1  1.027 -99.9 -99.99 -9.99
2020/01/15 22:00 EST    2.68   3.17    0   79    1  38.1  38.1 1019.7 33.2  1.027 -99.9 -99.99 -9.99
2020/01/15 22:06 EST    2.78   3.37    1   91    1  37.4  38.3 1019.7 33.1  1.027 -99.9 -99.99 -9.99
2020/01/15 22:12 EST    2.88   3.42    1   44    1  37.9  38.3 1019.4 33.2  1.027 -99.9 -99.99 -9.99
2020/01/15 22:18 EST    2.97   3.55    0   22    1  37.4  38.3 1019.4 33.1  1.027 -99.9 -99.99 -9.99
2020/01/15 22:24 EST    3.06   3.67    0   51    0  37.6  38.3 1019.3 33.1  1.027 -99.9 -99.99 -9.99
2020/01/15 22:30 EST    3.15   3.75    0   74    0  37.4  38.1 1019.3 33.2  1.027 -99.9 -99.99 -9.99
2020/01/15 22:36 EST    3.23   3.81    0   80    0  37.4  38.1 1019.3 33.1  1.027 -99.9 -99.99 -9.99
2020/01/15 22:42 EST    3.31   3.91    0   80    0  37.9  38.1 1019.3 33.1  1.027 -99.9 -99.99 -9.99
2020/01/15 22:48 EST    3.39   3.99    0  101    1  38.1  38.1 1019.3 33.2  1.027 -99.9 -99.99 -9.99
2020/01/15 22:54 EST    3.45   4.06    1   86    1  38.1  38.3 1019.1 33.0  1.027 -99.9 -99.99 -9.99
2020/01/15 23:00 EST    3.52   4.15    0   83    1  37.6  38.3 1019.2 33.1  1.027 -99.9 -99.99 -9.99
2020/01/15 23:06 EST    3.57   4.17    0  100    2  37.4  38.3 1019.2 33.1  1.027 -99.9 -99.99 -9.99
2020/01/15 23:12 EST    3.62   4.21    0   44    0  37.4  38.1 1019.1 33.2  1.027 -99.9 -99.99 -9.99
2020/01/15 23:18 EST    3.66   4.27    1   95    1  37.4  38.3 1019.0 33.1  1.027 -99.9 -99.99 -9.99
2020/01/15 23:24 EST    3.70   4.32    0   45    1  36.9  38.1 1018.8 33.2  1.027 -99.9 -99.99 -9.99
2020/01/15 23:30 EST    3.73   4.36    0   58    1  36.7  38.1 1018.7 33.2  1.027 -99.9 -99.99 -9.99
2020/01/15 23:36 EST    3.75   4.41    1   40    2  36.3  38.1 1018.6 33.1  1.027 -99.9 -99.99 -9.99
2020/01/15 23:42 EST    3.76   4.41    1   36    3  36.3  38.3 1018.4 33.1  1.027 -99.9 -99.99 -9.99
2020/01/15 23:48 EST    3.77   4.44    1  104    2  36.3  38.3 1018.2 33.1  1.027 -99.9 -99.99 -9.99
2020/01/15 23:54 EST    3.77   4.40    2   85    2  36.9  38.1 1017.9 33.1  1.027 -99.9 -99.99 -9.99
2020/01/16 00:00 EST    3.76   4.44    0   23    2  36.3  38.1 1017.8 33.1  1.027 -99.9 -99.99 -9.99
2020/01/16 00:06 EST    3.74   4.45    1   91    2  36.9  38.1 1017.6 33.1  1.027 -99.9 -99.99 -9.99
2020/01/16 00:12 EST    3.71   4.44    2   78    2  37.2  38.3 1017.4 33.1  1.027 -99.9 -99.99 -9.99
2020/01/16 00:18 EST    3.68   4.46    2   24    5  37.4  38.1 1017.1 33.1  1.027 -99.9 -99.99 -9.99
2020/01/16 00:24 EST    3.64   4.42    2   97    2  37.4  38.1 1017.0 33.1  1.027 -99.9 -99.99 -9.99
2020/01/16 00:30 EST    3.60   4.35    1   67    2  37.6  37.9 1017.2 33.0  1.027 -99.9 -99.99 -9.99
2020/01/16 00:36 EST    3.54   4.28    0  114    3  37.6  38.1 1017.0 33.1  1.027 -99.9 -99.99 -9.99
2020/01/16 00:42 EST    3.48   4.22    2  142    3  38.3  37.9 1017.0 33.0  1.027 -99.9 -99.99 -9.99
2020/01/16 00:48 EST    3.41   4.14    0   46    2  38.5  38.1 1017.0 33.0  1.027 -99.9 -99.99 -9.99
2020/01/16 00:54 EST    3.34   4.10    1    4    1  38.3  37.9 1016.9 33.0  1.027 -99.9 -99.99 -9.99
2020/01/16 01:00 EST    3.26   4.02    3   89    3  38.3  37.9 1016.6 33.0  1.027 -99.9 -99.99 -9.99
2020/01/16 01:06 EST    3.18   4.00    0   28    5  38.5  37.9 1016.6 32.9  1.027 -99.9 -99.99 -9.99
2020/01/16 01:12 EST    3.09   3.86    2  213    2  38.5  37.9 1016.9 33.0  1.027 -99.9 -99.99 -9.99
2020/01/16 01:18 EST    2.99   3.74    1  209    3  39.6  37.9 1016.7 33.0  1.027 -99.9 -99.99 -9.99
2020/01/16 01:24 EST    2.90   3.65    1  184    2  39.7  37.9 1016.7 33.0  1.027 -99.9 -99.99 -9.99
2020/01/16 01:30 EST    2.79   3.56    1  112    2  39.9  37.9 1016.5 33.0  1.027 -99.9 -99.99 -9.99
2020/01/16 01:36 EST    2.69   3.50    0  294    1  39.9  37.9 1017.0 33.0  1.027 -99.9 -99.99 -9.99
2020/01/16 01:42 EST    2.58   3.40    2  319    3  39.4  37.9 1017.5 33.2  1.027 -99.9 -99.99 -9.99
2020/01/16 01:48 EST    2.47   3.14    5   32    5  39.2  37.9 1017.4 33.0  1.027 -99.9 -99.99 -9.99
2020/01/16 01:54 EST    2.35   3.19    1  334    6  39.6  37.9 1018.0 33.0  1.027 -99.9 -99.99 -9.99
2020/01/16 02:00 EST    2.24   3.07    5  350    5  40.3  37.9 1017.4 33.1  1.027 -99.9 -99.99 -9.99
2020/01/16 02:06 EST    2.12   2.91    4   28    7  40.5  37.9 1016.9 33.0  1.027 -99.9 -99.99 -9.99
2020/01/16 02:12 EST    2.00   2.75    3   14    5  40.1  37.9 1016.7 32.9  1.027 -99.9 -99.99 -9.99
2020/01/16 02:18 EST    1.88   2.61    3   83    4  39.9  37.9 1016.6 33.4  1.028 -99.9 -99.99 -9.99
2020/01/16 02:24 EST    1.76   2.53    1   67    4  39.6  37.9 1016.5 32.8  1.027 -99.9 -99.99 -9.99
2020/01/16 02:30 EST    1.65   2.41    2  341    2  39.7  37.9 1016.5 32.9  1.027 -99.9 -99.99 -9.99
2020/01/16 02:36 EST    1.53   2.28    3   20    3  39.6  37.9 1016.3 33.0  1.027 -99.9 -99.99 -9.99
2020/01/16 02:42 EST    1.42   2.21    3   14    4  39.9  37.9 1016.3 33.0  1.027 -99.9 -99.99 -9.99
2020/01/16 02:48 EST    1.31   1.93    2   15    4  39.7  37.9 1016.3 33.0  1.027 -99.9 -99.99 -9.99
2020/01/16 02:54 EST    1.20   1.97    1  351    3  39.7  37.9 1016.3 33.0  1.027 -99.9 -99.99 -9.99
2020/01/16 03:00 EST    1.09   1.83    1   49    1  39.6  37.9 1015.9 33.3  1.027 -99.9 -99.99 -9.99
2020/01/16 03:06 EST    0.99   1.66    2   69    3  39.2  37.9 1015.6 33.0  1.027 -99.9 -99.99 -9.99
2020/01/16 03:12 EST    0.89   1.57    1   71    2  39.0  37.9 1015.5 33.2  1.027 -99.9 -99.99 -9.99
2020/01/16 03:18 EST    0.79   1.53    3   88    3  39.2  37.9 1015.1 33.0  1.027 -99.9 -99.99 -9.99
2020/01/16 03:24 EST    0.70   1.51    4  103    4  39.2  37.9 1014.7 33.1  1.027 -99.9 -99.99 -9.99
2020/01/16 03:30 EST    0.62   1.42    6  100    7  39.6  37.9 1014.4 33.1  1.027 -99.9 -99.99 -9.99
2020/01/16 03:36 EST    0.53   1.16    6   93    7  39.7  37.9 1014.2 33.0  1.027 -99.9 -99.99 -9.99
2020/01/16 03:42 EST    0.46   1.25    5   99    7  39.6  37.9 1014.0 32.9  1.027 -99.9 -99.99 -9.99
2020/01/16 03:48 EST    0.39   1.13    6  100    8  39.9  37.9 1013.6 33.3  1.027 -99.9 -99.99 -9.99
2020/01/16 03:54 EST    0.32   0.95    5   98    8  40.1  37.9 1013.7 33.1  1.027 -99.9 -99.99 -9.99
2020/01/16 04:00 EST    0.26   0.90    5  101    7  40.3  37.9 1013.6 32.7  1.027 -99.9 -99.99 -9.99
2020/01/16 04:06 EST    0.21   1.00    4  107    6  40.6  37.9 1013.6 33.3  1.027 -99.9 -99.99 -9.99
2020/01/16 04:12 EST    0.16   0.90    5  107    7  40.5  37.9 1013.1 33.3  1.027 -99.9 -99.99 -9.99
2020/01/16 04:18 EST    0.12   0.65    6  109    7  40.6  37.9 1013.1 33.2  1.027 -99.9 -99.99 -9.99
2020/01/16 04:24 EST    0.08   0.86    5  118    8  41.0  37.9 1013.2 33.3  1.027 -99.9 -99.99 -9.99
2020/01/16 04:30 EST    0.05   0.55    5  122    7  41.0  37.9 1013.5 33.1  1.027 -99.9 -99.99 -9.99
2020/01/16 04:36 EST    0.02   0.85    5  116    7  41.2  37.9 1013.1 33.1  1.027 -99.9 -99.99 -9.99
2020/01/16 04:42 EST    0.00   0.76    5  123    7  41.4  37.9 1012.9 33.1  1.027 -99.9 -99.99 -9.99
2020/01/16 04:48 EST   -0.02   0.72    6  107    7  41.4  37.9 1012.5 33.1  1.027 -99.9 -99.99 -9.99
2020/01/16 04:54 EST   -0.03   0.58    5  102    7  41.2  37.9 1012.4 33.4  1.028 -99.9 -99.99 -9.99
2020/01/16 05:00 EST   -0.04   0.66    5  113    7  41.4  37.9 1012.1 33.3  1.027 -99.9 -99.99 -9.99
2020/01/16 05:06 EST   -0.04   0.75    4  118    7  41.7  37.9 1011.8 33.2  1.027 -99.9 -99.99 -9.99
2020/01/16 05:12 EST   -0.04   0.77    5  136    6  42.1  37.9 1011.5 33.5  1.028 -99.9 -99.99 -9.99
2020/01/16 05:18 EST   -0.04   0.64    8  158    9  42.8  37.9 1011.7 33.4  1.028 -99.9 -99.99 -9.99
2020/01/16 05:24 EST   -0.04   0.93    6  157    9  43.2  37.9 1011.6 33.3  1.027 -99.9 -99.99 -9.99
2020/01/16 05:30 EST   -0.03   0.73    9  155   10  43.3  37.9 1011.4 33.5  1.028 -99.9 -99.99 -9.99
2020/01/16 05:36 EST   -0.02   0.83    9  158   10  43.3  37.9 1011.2 33.6  1.028 -99.9 -99.99 -9.99
2020/01/16 05:42 EST   -0.01   0.81    7  153   11  43.2  37.9 1011.1 33.5  1.028 -99.9 -99.99 -9.99
2020/01/16 05:48 EST    0.01   0.95    6  164   11  43.3  37.9 1011.3 33.5  1.028 -99.9 -99.99 -9.99
2020/01/16 05:54 EST    0.02   0.97    9  163   10  43.3  37.9 1011.1 33.6  1.028 -99.9 -99.99 -9.99
2020/01/16 06:00 EST    0.04   0.97    8  164   11  43.3  37.9 1011.1 33.7  1.028 -99.9 -99.99 -9.99
2020/01/16 06:06 EST    0.06   0.97    8  161   10  43.3  37.9 1010.9 33.5  1.028 -99.9 -99.99 -9.99
2020/01/16 06:12 EST    0.08   0.95    8  157   11  43.3  37.9 1010.6 33.6  1.028 -99.9 -99.99 -9.99
2020/01/16 06:18 EST    0.10   1.07   11  155   12  43.3  37.9 1010.1 33.3  1.027 -99.9 -99.99 -9.99
2020/01/16 06:24 EST    0.12   1.13   11  158   14  43.3  37.9 1010.1 33.3  1.027 -99.9 -99.99 -9.99
2020/01/16 06:30 EST    0.15   1.17    8  157   13  43.3  37.9 1010.1 33.2  1.027 -99.9 -99.99 -9.99
2020/01/16 06:36 EST    0.17   1.19    8  159   11  43.2  37.9 1010.0 33.4  1.028 -99.9 -99.99 -9.99
2020/01/16 06:42 EST    0.20   1.20   10  161   13  43.3  37.9 1009.9 33.5  1.028 -99.9 -99.99 -9.99
2020/01/16 06:48 EST    0.23   1.33   10  159   13  43.2  37.9 1009.6 33.5  1.028 -99.9 -99.99 -9.99
2020/01/16 06:54 EST    0.26   1.27   12  159   14  43.0  37.9 1009.4 33.5  1.028 -99.9 -99.99 -9.99
2020/01/16 07:00 EST    0.28   1.33   11  151   15  43.0  37.9 1009.1 33.5  1.028 -99.9 -99.99 -9.99
2020/01/16 07:06 EST    0.32   1.41   12  159   14  43.0  37.9 1009.0 33.5  1.028 -99.9 -99.99 -9.99
2020/01/16 07:12 EST    0.35   1.36   10  159   15  42.8  37.9 1008.8 33.5  1.028 -99.9 -99.99 -9.99
2020/01/16 07:18 EST    0.38   1.54   11  158   14  42.8  37.9 1008.7 33.4  1.028 -99.9 -99.99 -9.99
2020/01/16 07:24 EST    0.42   1.54   12  157   14  42.8  38.1 1008.6 33.3  1.027 -99.9 -99.99 -9.99
2020/01/16 07:30 EST    0.46   1.52   11  157   14  42.8  37.9 1008.4 33.3  1.027 -99.9 -99.99 -9.99
2020/01/16 07:36 EST    0.50   1.71   12  157   15  42.8  37.9 1008.2 33.3  1.027 -99.9 -99.99 -9.99
2020/01/16 07:42 EST    0.54   1.55   11  160   14  42.8  37.9 1008.1 33.4  1.027 -99.9 -99.99 -9.99
2020/01/16 07:48 EST    0.59   1.77   11  160   15  43.0  37.9 1008.1 33.2  1.027 -99.9 -99.99 -9.99
2020/01/16 07:54 EST    0.63   1.87    9  162   12  43.0  37.9 1007.9 33.3  1.027 -99.9 -99.99 -9.99
2020/01/16 08:00 EST    0.69   1.80   11  160   13  43.0  37.9 1007.7 33.3  1.027 -99.9 -99.99 -9.99
2020/01/16 08:06 EST    0.74   1.99   11  158   15  43.2  37.9 1007.6 33.3  1.027 -99.9 -99.99 -9.99
2020/01/16 08:12 EST    0.79   2.04    9  163   14  43.3  37.9 1007.4 33.3  1.027 -99.9 -99.99 -9.99
2020/01/16 08:18 EST    0.85   2.14    9  169   12  43.3  37.9 1007.3 33.3  1.027 -99.9 -99.99 -9.99
2020/01/16 08:24 EST    0.92   2.28   10  173   12  43.5  37.9 1007.2 33.3  1.027 -99.9 -99.99 -9.99
2020/01/16 08:30 EST    0.98   2.27    8  179   12  43.5  37.9 1007.1 33.3  1.027 -99.9 -99.99 -9.99
2020/01/16 08:36 EST    1.05   2.34    8  175   12  43.7  37.9 1006.9 33.3  1.027 -99.9 -99.99 -9.99
2020/01/16 08:42 EST    1.12   2.40    8  184   11  43.7  37.9 1006.9 33.3  1.027 -99.9 -99.99 -9.99
2020/01/16 08:48 EST    1.19   2.52    9  185   11  43.9  37.9 1006.7 33.3  1.027 -99.9 -99.99 -9.99
2020/01/16 08:54 EST    1.27   2.47   10  198   12  44.1  37.9 1006.7 33.2  1.027 -99.9 -99.99 -9.99
2020/01/16 09:00 EST    1.35   2.65    8  207   11  43.9  37.9 1006.6 33.2  1.027 -99.9 -99.99 -9.99
2020/01/16 09:06 EST    1.43   2.83    9  199   11  44.1  37.9 1006.5 33.2  1.027 -99.9 -99.99 -9.99
2020/01/16 09:12 EST    1.51   2.74   11  225   15  44.6  37.9 1006.3 33.2  1.027 -99.9 -99.99 -9.99
2020/01/16 09:18 EST    1.60   2.87   11  246   16  45.1  37.9 1006.2 33.2  1.027 -99.9 -99.99 -9.99
2020/01/16 09:24 EST    1.69   2.97   11  252   13  45.5  37.9 1006.1 33.2  1.027 -99.9 -99.99 -9.99
2020/01/16 09:30 EST    1.78   3.01   10  263   13  45.7  37.9 1006.2 33.2  1.027 -99.9 -99.99 -9.99
2020/01/16 09:36 EST    1.87   3.19   12  263   15  46.0  37.9 1006.1 33.2  1.027 -99.9 -99.99 -9.99
2020/01/16 09:42 EST    1.96   3.13   12  269   15  46.2  37.9 1006.1 33.2  1.027 -99.9 -99.99 -9.99
2020/01/16 09:48 EST    2.06   3.27   10  279   16  46.4  37.9 1006.1 33.2  1.027 -99.9 -99.99 -9.99
2020/01/16 09:54 EST    2.15   3.36   12  280   15  46.6  37.9 1006.0 33.3  1.027 -99.9 -99.99 -9.99
2020/01/16 10:00 EST    2.24   3.44   15  283   19  46.9  37.9 1006.0 33.2  1.027 -99.9 -99.99 -9.99
2020/01/16 10:06 EST    2.34   3.49   14  297   22  47.3  37.9 1006.0 33.2  1.027 -99.9 -99.99 -9.99
2020/01/16 10:12 EST    2.43   3.54   17  289   25  47.3  37.9 1006.1 33.2  1.027 -99.9 -99.99 -9.99
2020/01/16 10:18 EST    2.52   3.68   19  300   26  47.8  37.9 1006.2 33.2  1.027 -99.9 -99.99 -9.99
2020/01/16 10:24 EST    2.61   3.69   18  301   28  47.7  37.9 1006.2 33.2  1.027 -99.9 -99.99 -9.99
2020/01/16 10:30 EST    2.70   3.75   18  307   31  47.7  37.9 1006.2 33.2  1.027 -99.9 -99.99 -9.99
2020/01/16 10:36 EST    2.79   3.78   16  299   29  47.1  38.1 1006.2 33.1  1.027 -99.9 -99.99 -9.99
2020/01/16 10:42 EST    2.87   3.77   18  299   30  47.3  38.1 1006.1 33.1  1.027 -99.9 -99.99 -9.99
2020/01/16 10:48 EST    2.96   3.82   16  302   26  46.9  38.1 1006.1 33.1  1.027 -99.9 -99.99 -9.99
2020/01/16 10:54 EST    3.03   3.81   21  307   30  47.1  38.1 1006.0 33.1  1.027 -99.9 -99.99 -9.99
2020/01/16 11:00 EST    3.11   3.81   16  293   29  47.3  38.1 1005.9 33.1  1.027 -99.9 -99.99 -9.99
2020/01/16 11:06 EST    3.18   3.88   19  298   30  47.5  38.1 1005.8 33.1  1.027 -99.9 -99.99 -9.99
2020/01/16 11:12 EST    3.24   3.90   22  298   31  47.5  38.1 1005.5 33.1  1.027 -99.9 -99.99 -9.99
2020/01/16 11:18 EST    3.30   3.94   20  289   29  47.3  38.1 1005.4 33.1  1.027 -99.9 -99.99 -9.99
2020/01/16 11:24 EST    3.35   4.07   20  289   33  47.5  38.1 1005.3 33.1  1.027 -99.9 -99.99 -9.99
2020/01/16 11:30 EST    3.40   4.01   22  287   32  47.5  38.1 1005.3 33.1  1.027 -99.9 -99.99 -9.99
2020/01/16 11:36 EST    3.45   3.98   18  293   32  47.7  38.1 1005.2 33.1  1.027 -99.9 -99.99 -9.99
2020/01/16 11:42 EST    3.48   4.01   24  290   30  47.8  38.1 1005.1 33.2  1.027 -99.9 -99.99 -9.99
2020/01/16 11:48 EST    3.51   4.01   22  288   32  47.7  38.1 1005.0 33.2  1.027 -99.9 -99.99 -9.99
2020/01/16 11:54 EST    3.53   3.98   16  301   27  47.8  38.1 1005.0 33.2  1.027 -99.9 -99.99 -9.99
2020/01/16 12:00 EST    3.55   4.02   26  307   33  46.8  38.1 1005.0 33.2  1.027 -99.9 -99.99 -9.99
2020/01/16 12:06 EST    3.56   4.10   17  298   34  46.6  38.1 1005.2 33.2  1.027 -99.9 -99.99 -9.99
2020/01/16 12:12 EST    3.56   3.97   18  288   26  46.4  38.1 1005.1 33.2  1.027 -99.9 -99.99 -9.99
2020/01/16 12:18 EST    3.56   4.00   24  292   28  46.2  38.1 1005.1 33.2  1.027 -99.9 -99.99 -9.99
2020/01/16 12:24 EST    3.54   4.00   23  298   36  45.7  38.1 1005.2 33.2  1.027 -99.9 -99.99 -9.99
2020/01/16 12:30 EST    3.52   3.89   20  303   35  45.5  38.3 1005.3 33.1  1.027 -99.9 -99.99 -9.99
2020/01/16 12:36 EST    3.50   3.89   20  298   38  45.7  38.3 1005.1 33.1  1.027 -99.9 -99.99 -9.99
2020/01/16 12:42 EST    3.46   3.83   25  286   35  45.7  38.3 1005.0 33.1  1.027 -99.9 -99.99 -9.99
2020/01/16 12:48 EST    3.42   3.83   28  282   34  45.7  38.3 1004.8 33.1  1.027 -99.9 -99.99 -9.99
2020/01/16 12:54 EST    3.38   3.66   20  298   32  45.9  38.3 1005.1 33.0  1.027 -99.9 -99.99 -9.99
2020/01/16 13:00 EST    3.32   3.57   20  304   33  45.7  38.3 1005.2 33.2  1.027 -99.9 -99.99 -9.99
2020/01/16 13:06 EST    3.26   3.41   27  294   37  45.7  38.3 1004.9 33.2  1.027 -99.9 -99.99 -9.99
2020/01/16 13:12 EST    3.20   3.34   23  304   39  45.5  38.3 1005.2 33.1  1.027 -99.9 -99.99 -9.99
2020/01/16 13:18 EST    3.12   3.26   20  309   31  45.7  38.3 1005.2 33.1  1.027 -99.9 -99.99 -9.99
2020/01/16 13:24 EST    3.05   3.20   23  310   31  45.9  38.3 1005.3 33.2  1.027 -99.9 -99.99 -9.99
2020/01/16 13:30 EST    2.96   3.10   26  310   32  45.9  38.3 1005.3 33.2  1.027 -99.9 -99.99 -9.99
2020/01/16 13:36 EST    2.88   2.93   25  317   34  45.7  38.3 1005.4 33.2  1.027 -99.9 -99.99 -9.99
2020/01/16 13:42 EST    2.79   2.88   22  308   36  45.3  38.3 1005.4 33.2  1.027 -99.9 -99.99 -9.99
2020/01/16 13:48 EST    2.69   2.76   24  308   32  45.3  38.3 1005.5 33.2  1.027 -99.9 -99.99 -9.99
2020/01/16 13:54 EST    2.59   2.55   22  310   27  45.3  38.3 1005.6 33.2  1.027 -99.9 -99.99 -9.99
2020/01/16 14:00 EST    2.49   2.48   21  313   26  45.3  38.3 1005.7 33.2  1.027 -99.9 -99.99 -9.99
2020/01/16 14:06 EST    2.38   2.33   18  309   25  45.3  38.3 1005.9 33.2  1.027 -99.9 -99.99 -9.99
2020/01/16 14:12 EST    2.28   2.24   18  315   26  45.1  38.3 1006.0 33.2  1.027 -99.9 -99.99 -9.99
2020/01/16 14:18 EST    2.17   2.17   22  319   30  45.0  38.3 1006.1 33.2  1.027 -99.9 -99.99 -9.99
2020/01/16 14:24 EST    2.06   2.18   22  311   32  44.6  38.3 1006.2 33.2  1.027 -99.9 -99.99 -9.99
2020/01/16 14:30 EST    1.94   2.05   22  305   36  43.9  38.3 1006.2 33.2  1.027 -99.9 -99.99 -9.99
2020/01/16 14:36 EST    1.83   1.91   17  307   29  43.9  38.3 1006.3 33.2  1.027 -99.9 -99.99 -9.99
2020/01/16 14:42 EST    1.72   1.79   20  317   29  43.9  38.3 1006.4 33.2  1.027 -99.9 -99.99 -9.99
2020/01/16 14:48 EST    1.61   1.67   21  306   31  43.3  38.3 1006.5 33.2  1.027 -99.9 -99.99 -9.99
2020/01/16 14:54 EST    1.49   1.57   22  314   31  43.2  38.3 1006.8 33.1  1.027 -99.9 -99.99 -9.99
2020/01/16 15:00 EST    1.38   1.37   20  315   29  43.2  38.3 1006.8 33.1  1.027 -99.9 -99.99 -9.99
2020/01/16 15:06 EST    1.28   1.22   19  315   27  43.3  38.3 1007.0 33.1  1.027 -99.9 -99.99 -9.99
2020/01/16 15:12 EST    1.17   1.11   23  308   27  43.2  38.3 1007.0 33.1  1.027 -99.9 -99.99 -9.99
2020/01/16 15:18 EST    1.07   1.01   21  306   31  43.0  38.3 1007.2 33.1  1.027 -99.9 -99.99 -9.99
2020/01/16 15:24 EST    0.96   0.97   26  309   32  43.0  38.3 1007.2 33.1  1.027 -99.9 -99.99 -9.99
2020/01/16 15:30 EST    0.87   0.90   21  305   33  43.0  38.3 1007.3 33.1  1.027 -99.9 -99.99 -9.99
2020/01/16 15:36 EST    0.77   0.76   19  308   27  42.8  38.3 1007.5 33.1  1.027 -99.9 -99.99 -9.99
2020/01/16 15:42 EST    0.68   0.66   18  311   28  43.0  38.3 1007.6 33.0  1.027 -99.9 -99.99 -9.99
2020/01/16 15:48 EST    0.60   0.52   19  315   29  43.0  38.3 1007.8 33.0  1.027 -99.9 -99.99 -9.99
2020/01/16 15:54 EST    0.52   0.60   23  313   30  43.0  38.3 1007.9 33.1  1.027 -99.9 -99.99 -9.99
2020/01/16 16:00 EST    0.44   0.41   19  310   28  43.0  38.3 1008.1 33.0  1.027 -99.9 -99.99 -9.99
2020/01/16 16:06 EST    0.37   0.42   20  307   32  42.8  38.3 1008.2 33.0  1.027 -99.9 -99.99 -9.99
2020/01/16 16:12 EST    0.30   0.24   21  311   30  42.4  38.3 1008.3 33.0  1.027 -99.9 -99.99 -9.99
2020/01/16 16:18 EST    0.24   0.13   19  306   30  42.1  38.3 1008.6 33.0  1.027 -99.9 -99.99 -9.99
2020/01/16 16:24 EST    0.18   0.14   21  311   30  41.7  38.3 1008.8 33.0  1.027 -99.9 -99.99 -9.99
2020/01/16 16:30 EST    0.13   0.03   16  301   27  41.4  38.3 1009.0 33.0  1.027 -99.9 -99.99 -9.99
2020/01/16 16:36 EST    0.08  -0.01   19  286   25  39.6  38.3 1009.2 33.0  1.027 -99.9 -99.99 -9.99
2020/01/16 16:42 EST    0.04  -0.02   14  295   23  39.7  38.3 1009.4 33.0  1.027 -99.9 -99.99 -9.99
2020/01/16 16:48 EST    0.01  -0.09   12  301   18  39.7  38.3 1009.5 33.0  1.027 -99.9 -99.99 -9.99
2020/01/16 16:54 EST   -0.03  -0.14   15  312   22  40.1  38.3 1009.5 33.0  1.027 -99.9 -99.99 -9.99
2020/01/16 17:00 EST   -0.05  -0.12   12  306   19  40.1  38.3 1009.6 33.0  1.027 -99.9 -99.99 -9.99
2020/01/16 17:06 EST   -0.08  -0.08   12  301   18  40.1  38.3 1009.7 33.0  1.027 -99.9 -99.99 -9.99
2020/01/16 17:12 EST   -0.09  -0.15   14  310   20  39.9  38.1 1009.9 33.0  1.027 -99.9 -99.99 -9.99
2020/01/16 17:18 EST   -0.11  -0.05   15  317   21  39.9  38.1 1010.1 33.0  1.027 -99.9 -99.99 -9.99
2020/01/16 17:24 EST   -0.12  -0.14   14  311   21  39.9  38.1 1010.2 33.0  1.027 -99.9 -99.99 -9.99
2020/01/16 17:30 EST   -0.13   0.02   13  319   18  39.9  38.1 1010.5 33.0  1.027 -99.9 -99.99 -9.99
2020/01/16 17:36 EST   -0.13  -0.04   11  318   19  39.9  38.1 1010.8 33.0  1.027 -99.9 -99.99 -9.99
2020/01/16 17:42 EST   -0.13  -0.01   16  317   19  39.9  38.1 1010.9 33.0  1.027 -99.9 -99.99 -9.99
2020/01/16 17:48 EST   -0.13  -0.04   14  316   23  39.9  38.1 1011.0 33.0  1.027 -99.9 -99.99 -9.99
2020/01/16 17:54 EST   -0.12  -0.03   13  319   24  39.9  38.1 1011.2 33.0  1.027 -99.9 -99.99 -9.99
2020/01/16 18:00 EST   -0.12  -0.10   13  319   26  39.7  38.1 1011.5 33.0  1.027 -99.9 -99.99 -9.99
2020/01/16 18:06 EST   -0.11  -0.18   13  340   24  39.7  38.1 1011.7 33.0  1.027 -99.9 -99.99 -9.99
2020/01/16 18:12 EST   -0.10  -0.16   15  338   25  39.2  38.1 1011.9 33.0  1.027 -99.9 -99.99 -9.99
2020/01/16 18:18 EST   -0.09  -0.21   13  342   22  38.8  38.1 1012.0 33.0  1.027 -99.9 -99.99 -9.99
2020/01/16 18:24 EST   -0.07  -0.14   15  343   21  38.7  37.9 1012.2 33.0  1.027 -99.9 -99.99 -9.99
2020/01/16 18:30 EST   -0.06  -0.15   14  338   23  38.7  37.9 1012.4 33.0  1.027 -99.9 -99.99 -9.99
2020/01/16 18:36 EST   -0.04  -0.13   21  332   27  38.3  37.9 1012.6 33.0  1.027 -99.9 -99.99 -9.99
2020/01/16 18:42 EST   -0.03  -0.13   19  336   30  38.1  37.9 1012.7 33.0  1.027 -99.9 -99.99 -9.99
2020/01/16 18:48 EST   -0.01  -0.09   20  339   27  37.6  37.9 1012.8 33.0  1.027 -99.9 -99.99 -9.99
2020/01/16 18:54 EST    0.01  -0.20   18  335   28  37.4  37.9 1013.0 33.0  1.027 -99.9 -99.99 -9.99
2020/01/16 19:00 EST    0.03  -0.20   16  341   26  37.2  37.9 1013.3 33.0  1.027 -99.9 -99.99 -9.99
2020/01/16 19:06 EST    0.05  -0.25   18  337   29  36.9  37.9 1013.4 33.0  1.027 -99.9 -99.99 -9.99
2020/01/16 19:12 EST    0.08  -0.32   18  337   31  36.7  37.9 1013.5 33.0  1.027 -99.9 -99.99 -9.99
2020/01/16 19:18 EST    0.10  -0.26   18  342   26  36.7  37.9 1013.6 33.0  1.027 -99.9 -99.99 -9.99
2020/01/16 19:24 EST    0.13  -0.41   15  344   24  36.7  37.9 1013.7 33.0  1.027 -99.9 -99.99 -9.99
2020/01/16 19:30 EST    0.15  -0.26   17  339   25  36.7  37.8 1013.9 33.0  1.027 -99.9 -99.99 -9.99
2020/01/16 19:36 EST    0.18  -0.32   19  343   27  36.7  37.8 1013.9 32.9  1.027 -99.9 -99.99 -9.99
2020/01/16 19:42 EST    0.21  -0.37   21  342   34  36.7  37.8 1014.1 32.9  1.027 -99.9 -99.99 -9.99
2020/01/16 19:48 EST    0.25  -0.37   18  335   29  36.5  37.8 1014.2 32.9  1.027 -99.9 -99.99 -9.99
2020/01/16 19:54 EST    0.28  -0.24   18  336   30  36.3  37.8 1014.2 32.9  1.027 -99.9 -99.99 -9.99
2020/01/16 20:00 EST    0.32  -0.35   16  337   27  36.3  37.8 1014.2 32.9  1.027 -99.9 -99.99 -9.99
2020/01/16 20:06 EST    0.36  -0.33   16  338   24  36.3  37.8 1014.3 32.9  1.027 -99.9 -99.99 -9.99
2020/01/16 20:12 EST    0.40  -0.27   17  333   24  36.1  37.8 1014.3 32.9  1.027 -99.9 -99.99 -9.99
2020/01/16 20:18 EST    0.45  -0.21   17  341   26  36.0  37.8 1014.4 32.9  1.027 -99.9 -99.99 -9.99
2020/01/16 20:24 EST    0.50  -0.18   20  344   27  36.0  37.8 1014.5 32.9  1.027 -99.9 -99.99 -9.99
2020/01/16 20:30 EST    0.55  -0.14   17  336   27  35.8  37.8 1014.5 32.9  1.027 -99.9 -99.99 -9.99
2020/01/16 20:36 EST    0.60  -0.16   15  334   22  35.8  37.6 1014.7 33.0  1.027 -99.9 -99.99 -9.99
2020/01/16 20:42 EST    0.66  -0.07   17  338   24  35.6  37.6 1014.8 33.0  1.027 -99.9 -99.99 -9.99
2020/01/16 20:48 EST    0.72  -0.11   14  337   21  35.6  37.6 1014.8 33.0  1.027 -99.9 -99.99 -9.99
2020/01/16 20:54 EST    0.79  -0.03   14  335   21  35.6  37.6 1014.9 33.0  1.027 -99.9 -99.99 -9.99
2020/01/16 21:00 EST    0.86  -0.01   13  337   21  35.4  37.6 1015.0 33.0  1.027 -99.9 -99.99 -9.99
2020/01/16 21:06 EST    0.93   0.11   13  327   25  35.2  37.6 1015.1 33.0  1.027 -99.9 -99.99 -9.99
2020/01/16 21:12 EST    1.01   0.15   15  336   21  35.2  37.6 1015.2 33.0  1.027 -99.9 -99.99 -9.99
2020/01/16 21:18 EST    1.09   0.24   14  334   26  35.2  37.6 1015.3 33.0  1.027 -99.9 -99.99 -9.99
2020/01/16 21:24 EST    1.17   0.24   14  328   23  34.9  37.4 1015.3 33.0  1.027 -99.9 -99.99 -9.99
2020/01/16 21:30 EST    1.25   0.25   15  338   19  35.1  37.4 1015.4 33.0  1.027 -99.9 -99.99 -9.99
2020/01/16 21:36 EST    1.34   0.46   12  339   19  34.9  37.4 1015.5 33.0  1.027 -99.9 -99.99 -9.99
2020/01/16 21:42 EST    1.43   0.55   15  335   20  34.7  37.4 1015.5 33.0  1.027 -99.9 -99.99 -9.99
2020/01/16 21:48 EST    1.53   0.71   13  331   24  34.5  37.4 1015.6 33.0  1.027 -99.9 -99.99 -9.99
2020/01/16 21:54 EST    1.62   0.79   15  339   21  34.3  37.4 1015.6 33.0  1.027 -99.9 -99.99 -9.99
2020/01/16 22:00 EST    1.72   1.00   12  330   21  34.3  37.4 1015.6 33.0  1.027 -99.9 -99.99 -9.99
2020/01/16 22:06 EST    1.82   1.09   14  318   27  34.3  37.4 1015.6 33.0  1.027 -99.9 -99.99 -9.99
2020/01/16 22:12 EST    1.92   1.13   13  317   19  34.2  37.4 1015.9 33.0  1.027 -99.9 -99.99 -9.99
2020/01/16 22:18 EST    2.02   1.29   12  331   18  34.0  37.4 1016.0 33.0  1.027 -99.9 -99.99 -9.99
2020/01/16 22:24 EST    2.13   1.38   14  322   19  34.0  37.4 1016.0 33.0  1.027 -99.9 -99.99 -9.99
2020/01/16 22:30 EST    2.23   1.57   13  319   19  33.8  37.4 1016.1 33.0  1.027 -99.9 -99.99 -9.99
2020/01/16 22:36 EST    2.34   1.67   14  318   19  33.8  37.4 1016.2 33.0  1.027 -99.9 -99.99 -9.99
2020/01/16 22:42 EST    2.44   1.88   17  317   23  33.6  37.4 1016.2 33.0  1.027 -99.9 -99.99 -9.99
2020/01/16 22:48 EST    2.54   2.03   15  319   23  34.0  37.4 1016.3 33.0  1.027 -99.9 -99.99 -9.99
2020/01/16 22:54 EST    2.64   2.22   15  332   24  33.8  37.4 1016.6 33.0  1.027 -99.9 -99.99 -9.99
2020/01/16 23:00 EST    2.74   2.36   16  316   24  33.4  37.2 1016.6 33.1  1.027 -99.9 -99.99 -9.99
2020/01/16 23:06 EST    2.84   2.43   12  321   23  33.3  37.2 1016.9 33.1  1.027 -99.9 -99.99 -9.99
2020/01/16 23:12 EST    2.93   2.59   14  332   25  33.3  37.2 1017.0 33.1  1.027 -99.9 -99.99 -9.99
2020/01/16 23:18 EST    3.02   2.69   17  319   22  32.5  37.2 1017.0 33.1  1.027 -99.9 -99.99 -9.99
2020/01/16 23:24 EST    3.11   2.86   15  335   24  32.7  37.2 1017.2 33.0  1.027 -99.9 -99.99 -9.99
2020/01/16 23:30 EST    3.20   3.07   16  330   24  32.7  37.2 1017.3 33.0  1.027 -99.9 -99.99 -9.99
2020/01/16 23:36 EST    3.27   3.13   16  336   26  32.5  37.2 1017.5 33.0  1.027 -99.9 -99.99 -9.99
2020/01/16 23:42 EST    3.35   3.19   17  336   25  32.7  37.2 1017.5 33.0  1.027 -99.9 -99.99 -9.99
2020/01/16 23:48 EST    3.42   3.32   20  340   27  32.4  37.2 1017.6 33.0  1.027 -99.9 -99.99 -9.99
2020/01/16 23:54 EST    3.48   3.49   19  336   30  32.2  37.2 1017.8 33.0  1.027 -99.9 -99.99 -9.99
2020/01/17 00:00 EST    3.54   3.52   17  336   25  32.2  37.0 1017.9 33.1  1.027 -99.9 -99.99 -9.99
2020/01/17 00:06 EST    3.59   3.58   16  342   23  32.0  37.0 1017.9 33.1  1.027 -99.9 -99.99 -9.99
2020/01/17 00:12 EST    3.64   3.62   19  341   24  31.8  37.2 1018.1 33.0  1.027 -99.9 -99.99 -9.99
2020/01/17 00:18 EST    3.67   3.65   17  340   23  31.8  37.0 1018.1 33.1  1.027 -99.9 -99.99 -9.99
2020/01/17 00:24 EST    3.71   3.68   20  356   27  31.5  37.0 1018.3 33.1  1.027 -99.9 -99.99 -9.99
2020/01/17 00:30 EST    3.73   3.75   18  350   23  31.3  37.0 1018.4 33.1  1.027 -99.9 -99.99 -9.99
2020/01/17 00:36 EST    3.75   3.81   19  345   27  31.1  37.0 1018.5 33.1  1.027 -99.9 -99.99 -9.99
2020/01/17 00:42 EST    3.76   3.78   19  349   27  30.9  37.2 1018.6 33.0  1.027 -99.9 -99.99 -9.99
2020/01/17 00:48 EST    3.76   3.81   18  337   26  30.9  37.0 1018.7 33.1  1.027 -99.9 -99.99 -9.99
2020/01/17 00:54 EST    3.75   3.79   17  348   25  30.6  37.0 1018.8 33.1  1.027 -99.9 -99.99 -9.99
2020/01/17 01:00 EST    3.74   3.77   19  341   34  30.6  36.9 1018.9 33.0  1.027 -99.9 -99.99 -9.99
2020/01/17 01:06 EST    3.72   3.76   20  345   24  30.4  36.7 1019.2 32.9  1.027 -99.9 -99.99 -9.99
2020/01/17 01:12 EST    3.69   3.65   18  351   28  30.2  36.5 1019.3 33.0  1.027 -99.9 -99.99 -9.99
2020/01/17 01:18 EST    3.66   3.59   18  344   27  30.2  36.3 1019.4 33.0  1.027 -99.9 -99.99 -9.99
2020/01/17 01:24 EST    3.62   3.55   18  350   30  29.7  36.3 1019.6 32.9  1.027 -99.9 -99.99 -9.99
2020/01/17 01:30 EST    3.57   3.46   16  347   27  29.8  36.3 1019.7 32.9  1.027 -99.9 -99.99 -9.99
2020/01/17 01:36 EST    3.51   3.42   19  341   31  29.5  36.3 1019.8 33.0  1.027 -99.9 -99.99 -9.99
2020/01/17 01:42 EST    3.45   3.29   21  341   28  29.5  36.3 1019.9 33.0  1.027 -99.9 -99.99 -9.99
2020/01/17 01:48 EST    3.39   3.18   23  335   31  29.1  36.3 1020.1 32.9  1.027 -99.9 -99.99 -9.99
2020/01/17 01:54 EST    3.32   3.06   26  341   33  28.8  36.1 1020.4 33.0  1.027 -99.9 -99.99 -9.99
2020/01/17 02:00 EST    3.24   3.12   23  338   32  28.6  36.3 1020.7 32.9  1.027 -99.9 -99.99 -9.99
2020/01/17 02:06 EST    3.16   3.02   17  337   39  28.6  36.1 1020.8 33.0  1.027 -99.9 -99.99 -9.99
2020/01/17 02:12 EST    3.07   2.77   21  341   26  28.4  36.1 1021.1 33.0  1.027 -99.9 -99.99 -9.99
2020/01/17 02:18 EST    2.98   2.65   20  347   32  27.9  36.1 1021.3 32.9  1.027 -99.9 -99.99 -9.99
2020/01/17 02:24 EST    2.89   2.59   20  333   29  27.7  36.1 1021.5 33.0  1.027 -99.9 -99.99 -9.99
2020/01/17 02:30 EST    2.79   2.34   20  354   31  27.3  36.1 1021.7 33.0  1.027 -99.9 -99.99 -9.99
2020/01/17 02:36 EST    2.69   2.20   20  339   30  27.1  36.1 1021.7 32.9  1.027 -99.9 -99.99 -9.99
2020/01/17 02:42 EST    2.59   2.04   22  344   28  26.8  36.1 1021.8 32.9  1.027 -99.9 -99.99 -9.99
2020/01/17 02:48 EST    2.48   1.89   22  332   31  26.4  36.1 1021.9 32.9  1.027 -99.9 -99.99 -9.99
2020/01/17 02:54 EST    2.37   1.83   19  342   29  26.2  36.0 1021.9 33.0  1.027 -99.9 -99.99 -9.99
2020/01/17 03:00 EST    2.27   1.64   19  339   27  26.6  36.0 1022.1 33.0  1.027 -99.9 -99.99 -9.99
2020/01/17 03:06 EST    2.16   1.58   19  336   30  26.1  36.0 1022.1 33.0  1.027 -99.9 -99.99 -9.99
2020/01/17 03:12 EST    2.05   1.49   18  334   27  26.1  36.0 1022.1 32.9  1.027 -99.9 -99.99 -9.99
2020/01/17 03:18 EST    1.94   1.33   23  338   29  25.9  36.0 1022.4 33.0  1.027 -99.9 -99.99 -9.99
2020/01/17 03:24 EST    1.84   1.22   21  333   29  25.7  36.0 1022.6 33.0  1.027 -99.9 -99.99 -9.99
2020/01/17 03:30 EST    1.73   1.11   19  341   33  25.7  36.0 1022.8 32.9  1.027 -99.9 -99.99 -9.99
2020/01/17 03:36 EST    1.62   1.00   26  336   36  25.2  36.0 1022.9 32.9  1.027 -99.9 -99.99 -9.99
2020/01/17 03:42 EST    1.52   1.00   20  342   31  25.5  36.0 1022.9 32.9  1.027 -99.9 -99.99 -9.99
2020/01/17 03:48 EST    1.42   0.89   21  338   31  25.3  36.0 1023.0 32.9  1.027 -99.9 -99.99 -9.99
2020/01/17 03:54 EST    1.32   0.76   21  342   29  25.0  36.0 1023.3 32.9  1.027 -99.9 -99.99 -9.99
2020/01/17 04:00 EST    1.23   0.68   22  337   29  24.8  35.8 1023.4 33.0  1.027 -99.9 -99.99 -9.99
2020/01/17 04:06 EST    1.14   0.55   19  341   29  24.8  35.8 1023.6 33.0  1.027 -99.9 -99.99 -9.99
2020/01/17 04:12 EST    1.05   0.59   16  336   27  24.8  35.8 1023.6 33.0  1.027 -99.9 -99.99 -9.99
2020/01/17 04:18 EST    0.97   0.52   17  338   25  24.8  35.8 1023.8 33.0  1.027 -99.9 -99.99 -9.99
2020/01/17 04:24 EST    0.89   0.38   15  331   25  24.6  35.8 1024.0 33.0  1.027 -99.9 -99.99 -9.99
2020/01/17 04:30 EST    0.81   0.30   15  332   21  24.6  35.8 1024.2 33.0  1.027 -99.9 -99.99 -9.99
2020/01/17 04:36 EST    0.74   0.21   16  334   23  24.4  35.8 1024.3 33.0  1.027 -99.9 -99.99 -9.99
2020/01/17 04:42 EST    0.67   0.16   18  330   26  24.3  35.8 1024.3 33.1  1.027 -99.9 -99.99 -9.99
2020/01/17 04:48 EST    0.61   0.31   20  337   28  23.9  36.0 1024.5 33.0  1.027 -99.9 -99.99 -9.99
2020/01/17 04:54 EST    0.56   0.14   24  343   30  24.1  36.0 1024.7 33.0  1.027 -99.9 -99.99 -9.99
2020/01/17 05:00 EST    0.50   0.12   22  341   35  23.7  36.0 1024.9 33.0  1.027 -99.9 -99.99 -9.99
2020/01/17 05:06 EST    0.46   0.07   24  341   31  23.5  36.0 1025.2 33.0  1.027 -99.9 -99.99 -9.99
2020/01/17 05:12 EST    0.41   0.12   19  344   28  23.7  35.8 1025.3 33.0  1.027 -99.9 -99.99 -9.99
2020/01/17 05:18 EST    0.37   0.11   19  348   28  23.4  35.8 1025.4 33.1  1.027 -99.9 -99.99 -9.99
2020/01/17 05:24 EST    0.34   0.08   16  346   24  23.5  35.8 1025.7 33.0  1.027 -99.9 -99.99 -9.99
2020/01/17 05:30 EST    0.31   0.09   19  334   28  23.7  35.8 1025.9 33.0  1.027 -99.9 -99.99 -9.99
2020/01/17 05:36 EST    0.28   0.08   19  338   29  23.2  35.8 1026.1 33.0  1.027 -99.9 -99.99 -9.99
2020/01/17 05:42 EST    0.26   0.01   20  343   30  23.4  35.8 1026.4 33.0  1.027 -99.9 -99.99 -9.99
2020/01/17 05:48 EST    0.24  -0.02   22  339   30  23.0  35.8 1026.4 33.0  1.027 -99.9 -99.99 -9.99
2020/01/17 05:54 EST    0.23   0.09   19  340   28  23.5  35.6 1026.6 33.1  1.027 -99.9 -99.99 -9.99
2020/01/17 06:00 EST    0.22   0.16   24  339   32  22.8  35.6 1026.7 33.1  1.027 -99.9 -99.99 -9.99
2020/01/17 06:06 EST    0.21   0.16   21  347   31  23.0  35.6 1026.8 33.1  1.027 -99.9 -99.99 -9.99
2020/01/17 06:12 EST    0.20   0.29   19  340   29  23.2  35.6 1027.0 33.1  1.027 -99.9 -99.99 -9.99
2020/01/17 06:18 EST    0.19   0.23   21  339   29  22.3  35.6 1027.1 33.1  1.027 -99.9 -99.99 -9.99
2020/01/17 06:24 EST    0.19   0.29   18  344   29  22.6  35.6 1027.4 33.1  1.027 -99.9 -99.99 -9.99
2020/01/17 06:30 EST    0.19   0.40   20  341   29  22.1  35.6 1027.6 33.1  1.027 -99.9 -99.99 -9.99
2020/01/17 06:36 EST    0.19   0.29   20  337   28  21.9  35.6 1027.7 33.1  1.027 -99.9 -99.99 -9.99
2020/01/17 06:42 EST    0.19   0.32   19  338   29  22.1  35.6 1027.6 33.1  1.027 -99.9 -99.99 -9.99
2020/01/17 06:48 EST    0.20   0.43   19  339   28  21.7  35.6 1027.8 33.1  1.027 -99.9 -99.99 -9.99
2020/01/17 06:54 EST    0.20   0.20   20  341   30  21.7  35.6 1028.1 33.2  1.027 -99.9 -99.99 -9.99
2020/01/17 07:00 EST    0.21   0.31   19  344   30  21.9  35.6 1028.3 33.1  1.027 -99.9 -99.99 -9.99
2020/01/17 07:06 EST    0.22   0.42   19  341   28  21.7  35.4 1028.4 33.1  1.027 -99.9 -99.99 -9.99
2020/01/17 07:12 EST    0.22   0.25   21  338   29  21.4  35.4 1028.6 33.2  1.027 -99.9 -99.99 -9.99
2020/01/17 07:18 EST    0.23   0.33   28  347   34  20.8  35.4 1028.9 33.1  1.027 -99.9 -99.99 -9.99
2020/01/17 07:24 EST    0.24   0.53   23  350   33  20.7  35.4 1029.0 33.1  1.027 -99.9 -99.99 -9.99
2020/01/17 07:30 EST    0.25   0.49   17  338   32  21.0  35.4 1029.0 33.1  1.027 -99.9 -99.99 -9.99
2020/01/17 07:36 EST    0.27   0.36   19  341   26  20.8  35.4 1029.3 33.1  1.027 -99.9 -99.99 -9.99
2020/01/17 07:42 EST    0.28   0.35   20  333   26  20.7  35.4 1029.4 33.1  1.027 -99.9 -99.99 -9.99
2020/01/17 07:48 EST    0.30   0.36   19  341   28  20.7  35.4 1029.3 33.1  1.027 -99.9 -99.99 -9.99
2020/01/17 07:54 EST    0.31   0.46   19  342   31  20.5  35.4 1029.5 33.1  1.027 -99.9 -99.99 -9.99
2020/01/17 08:00 EST    0.33   0.45   17  336   28  20.8  35.4 1029.5 33.1  1.027 -99.9 -99.99 -9.99
2020/01/17 08:06 EST    0.35   0.53   17  333   29  20.8  35.2 1029.7 33.2  1.027 -99.9 -99.99 -9.99
2020/01/17 08:12 EST    0.37   0.49   18  334   26  20.3  35.2 1030.0 33.2  1.027 -99.9 -99.99 -9.99
2020/01/17 08:18 EST    0.39   0.53   19  342   29  20.1  35.2 1030.3 33.2  1.027 -99.9 -99.99 -9.99
2020/01/17 08:24 EST    0.42   0.62   18  336   28  20.1  35.2 1030.3 33.2  1.027 -99.9 -99.99 -9.99
2020/01/17 08:30 EST    0.45   0.54   21  334   30  20.1  35.2 1030.4 33.2  1.027 -99.9 -99.99 -9.99
2020/01/17 08:36 EST    0.48   0.59   19  351   29  20.5  35.2 1030.5 33.2  1.027 -99.9 -99.99 -9.99
2020/01/17 08:42 EST    0.51   0.47   16  337   26  20.1  35.2 1030.4 33.2  1.027 -99.9 -99.99 -9.99
2020/01/17 08:48 EST    0.55   0.68   20  336   27  20.1  35.1 1030.7 33.2  1.027 -99.9 -99.99 -9.99
2020/01/17 08:54 EST    0.59   0.61   17  345   29  20.7  35.1 1030.8 33.2  1.028 -99.9 -99.99 -9.99
2020/01/17 09:00 EST    0.63   0.66   18  342   29  20.3  35.1 1031.0 33.2  1.027 -99.9 -99.99 -9.99
2020/01/17 09:06 EST    0.68   0.60   20  336   27  20.1  35.1 1031.2 33.2  1.027 -99.9 -99.99 -9.99
2020/01/17 09:12 EST    0.73   0.76   19  352   30  20.3  35.1 1031.3 33.2  1.027 -99.9 -99.99 -9.99
2020/01/17 09:18 EST    0.78   0.69   20  351   28  19.9  35.1 1031.6 33.2  1.027 -99.9 -99.99 -9.99
2020/01/17 09:24 EST    0.83   0.81   21  337   29  20.1  35.1 1031.6 33.2  1.027 -99.9 -99.99 -9.99
2020/01/17 09:30 EST    0.89   0.86   24  345   35  19.9  35.1 1031.7 33.2  1.027 -99.9 -99.99 -9.99
2020/01/17 09:36 EST    0.95   0.76   21  343   31  20.1  35.1 1031.8 33.2  1.027 -99.9 -99.99 -9.99
2020/01/17 09:42 EST    1.02   0.88   17  352   28  20.1  35.1 1031.9 33.2  1.027 -99.9 -99.99 -9.99
2020/01/17 09:48 EST    1.09   0.86   17  344   29  19.9  35.1 1032.2 33.2  1.027 -99.9 -99.99 -9.99
2020/01/17 09:54 EST    1.16   0.94   15  357   24  20.5  35.1 1032.2 33.2  1.027 -99.9 -99.99 -9.99
2020/01/17 10:00 EST    1.23   1.05   18  336   27  20.3  35.1 1032.2 33.2  1.027 -99.9 -99.99 -9.99
2020/01/17 10:06 EST    1.31   1.05   19  337   27  20.3  35.2 1032.4 33.2  1.027 -99.9 -99.99 -9.99
2020/01/17 10:12 EST    1.39   1.20   18  349   27  20.1  35.2 1032.4 33.2  1.027 -99.9 -99.99 -9.99
2020/01/17 10:18 EST    1.47   1.28   17  345   26  20.5  35.1 1032.5 33.3  1.028 -99.9 -99.99 -9.99
2020/01/17 10:24 EST    1.56   1.28   17  337   24  20.8  35.2 1032.5 33.2  1.027 -99.9 -99.99 -9.99
2020/01/17 10:30 EST    1.64   1.37   19  339   27  20.8  35.2 1032.7 33.2  1.027 -99.9 -99.99 -9.99
2020/01/17 10:36 EST    1.73   1.57   19  339   26  20.7  35.2 1032.5 33.2  1.027 -99.9 -99.99 -9.99
2020/01/17 10:42 EST    1.82   1.61   20  335   27  21.0  35.2 1032.6 33.2  1.027 -99.9 -99.99 -9.99
2020/01/17 10:48 EST    1.91   1.78   18  336   27  21.0  35.2 1032.6 33.2  1.027 -99.9 -99.99 -9.99
2020/01/17 10:54 EST    2.00   1.88   17  342   25  21.4  35.2 1032.9 33.2  1.027 -99.9 -99.99 -9.99
2020/01/17 11:00 EST    2.09   1.94   18  333   25  20.8  35.2 1032.9 33.2  1.027 -99.9 -99.99 -9.99
2020/01/17 11:06 EST    2.18   2.14   19  343   24  21.6  35.2 1033.0 33.2  1.027 -99.9 -99.99 -9.99
2020/01/17 11:12 EST    2.27   2.25   16  339   25  21.6  35.2 1032.9 33.2  1.027 -99.9 -99.99 -9.99
2020/01/17 11:18 EST    2.36   2.29   18  336   26  21.9  35.2 1032.9 33.2  1.027 -99.9 -99.99 -9.99
2020/01/17 11:24 EST    2.44   2.46   19  336   27  21.7  35.2 1033.0 33.2  1.027 -99.9 -99.99 -9.99
2020/01/17 11:30 EST    2.53   2.58   18  359   26  21.7  35.2 1033.0 33.2  1.027 -99.9 -99.99 -9.99
2020/01/17 11:36 EST    2.61   2.74   15  341   24  22.3  35.1 1032.9 33.1  1.027 -99.9 -99.99 -9.99
2020/01/17 11:42 EST    2.69   2.84   15  338   24  22.1  35.1 1032.8 33.1  1.027 -99.9 -99.99 -9.99
2020/01/17 11:48 EST    2.77   2.98   18  342   23  22.3  35.2 1032.8 33.1  1.027 -99.9 -99.99 -9.99
2020/01/17 11:54 EST    2.84   3.01   17  343   27  22.6  35.2 1032.7 33.1  1.027 -99.9 -99.99 -9.99
2020/01/17 12:00 EST    2.91   3.11   18  341   26  22.3  35.4 1032.5 33.0  1.027 -99.9 -99.99 -9.99
2020/01/17 12:06 EST    2.98   3.28   20  334   27  22.5  35.4 1032.6 33.0  1.027 -99.9 -99.99 -9.99
2020/01/17 12:12 EST    3.04   3.38   19  359   30  23.0  35.6 1032.5 32.9  1.027 -99.9 -99.99 -9.99
2020/01/17 12:18 EST    3.09   3.43   16  345   27  22.8  35.6 1032.5 32.9  1.027 -99.9 -99.99 -9.99
2020/01/17 12:24 EST    3.14   3.55   20  340   23  22.8  35.6 1032.7 32.9  1.027 -99.9 -99.99 -9.99
2020/01/17 12:30 EST    3.19   3.55   19  345   25  22.6  35.4 1032.8 33.0  1.027 -99.9 -99.99 -9.99
2020/01/17 12:36 EST    3.23   3.68   15  344   27  22.5  35.4 1032.7 33.0  1.027 -99.9 -99.99 -9.99
2020/01/17 12:42 EST    3.26   3.68   18  340   25  22.8  35.6 1032.7 32.9  1.027 -99.9 -99.99 -9.99
2020/01/17 12:48 EST    3.28   3.76   17  359   23  23.0  35.4 1032.8 33.0  1.027 -99.9 -99.99 -9.99
2020/01/17 12:54 EST    3.30   3.80   16  342   24  23.4  35.6 1032.7 32.9  1.027 -99.9 -99.99 -9.99
2020/01/17 13:00 EST    3.31   3.75   16  338   25  23.5  35.4 1032.6 33.0  1.027 -99.9 -99.99 -9.99
2020/01/17 13:06 EST    3.32   3.81   17  357   22  23.5  35.4 1032.8 33.0  1.027 -99.9 -99.99 -9.99
2020/01/17 13:12 EST    3.32   3.88   15  331   19  23.7  35.4 1032.8 33.0  1.027 -99.9 -99.99 -9.99
2020/01/17 13:18 EST    3.31   3.88   17  339   24  23.7  35.4 1032.9 33.0  1.027 -99.9 -99.99 -9.99
2020/01/17 13:24 EST    3.30   3.80   16  335   22  24.1  35.4 1032.9 33.0  1.027 -99.9 -99.99 -9.99
2020/01/17 13:30 EST    3.27   3.86   15  343   23  24.1  35.4 1032.8 33.0  1.027 -99.9 -99.99 -9.99
2020/01/17 13:36 EST    3.25   3.86   17  340   27  24.1  35.4 1032.9 32.9  1.027 -99.9 -99.99 -9.99
2020/01/17 13:42 EST    3.21   3.78   16  346   24  24.3  35.4 1032.9 33.1  1.027 -99.9 -99.99 -9.99
2020/01/17 13:48 EST    3.17   3.76   15  352   24  24.4  35.4 1033.0 33.2  1.027 -99.9 -99.99 -9.99
2020/01/17 13:54 EST    3.12   3.74   15  352   22  24.4  35.4 1033.1 33.0  1.027 -99.9 -99.99 -9.99
2020/01/17 14:00 EST    3.07   3.67   15  339   21  24.6  35.2 1033.2 33.0  1.027 -99.9 -99.99 -9.99
2020/01/17 14:06 EST    3.01   3.65   15  332   22  24.4  35.2 1033.2 33.0  1.027 -99.9 -99.99 -9.99
2020/01/17 14:12 EST    2.95   3.65   19  342   25  24.1  35.2 1033.2 33.0  1.027 -99.9 -99.99 -9.99
2020/01/17 14:18 EST    2.88   3.56   14  338   26  24.6  35.2 1033.3 33.0  1.027 -99.9 -99.99 -9.99
2020/01/17 14:24 EST    2.81   3.43   15  343   22  24.4  35.2 1033.4 33.0  1.027 -99.9 -99.99 -9.99
2020/01/17 14:30 EST    2.73   3.32   11  343   20  24.6  35.2 1033.5 33.0  1.027 -99.9 -99.99 -9.99
2020/01/17 14:36 EST    2.65   3.21   11  333   17  25.0  35.2 1033.5 33.0  1.027 -99.9 -99.99 -9.99
2020/01/17 14:42 EST    2.56   3.12   14  332   19  24.6  35.4 1033.6 33.0  1.027 -99.9 -99.99 -9.99
2020/01/17 14:48 EST    2.47   3.02   16  328   23  25.5  35.2 1033.5 32.9  1.027 -99.9 -99.99 -9.99
2020/01/17 14:54 EST    2.38   2.89   14  343   22  25.0  34.7 1033.6 32.9  1.027 -99.9 -99.99 -9.99
2020/01/17 15:00 EST    2.29   2.83   12  330   21  25.2  34.5 1033.7 33.0  1.027 -99.9 -99.99 -9.99
2020/01/17 15:06 EST    2.19   2.84   13  322   18  25.2  34.5 1033.6 32.9  1.027 -99.9 -99.99 -9.99
2020/01/17 15:12 EST    2.09   2.71   13  327   20  24.8  34.5 1033.7 33.0  1.027 -99.9 -99.99 -9.99
2020/01/17 15:18 EST    1.99   2.56   11  340   21  25.2  34.7 1033.7 32.9  1.027 -99.9 -99.99 -9.99
2020/01/17 15:24 EST    1.89   2.48   11  329   20  25.0  34.5 1033.7 33.0  1.027 -99.9 -99.99 -9.99
2020/01/17 15:30 EST    1.79   2.34   13  321   21  24.8  34.5 1033.8 33.0  1.027 -99.9 -99.99 -9.99
2020/01/17 15:36 EST    1.69   2.25   15  316   20  25.0  34.5 1033.7 33.0  1.027 -99.9 -99.99 -9.99
2020/01/17 15:42 EST    1.59   2.10   11  336   18  25.0  34.5 1034.0 33.0  1.027 -99.9 -99.99 -9.99
2020/01/17 15:48 EST    1.49   2.01   12  335   17  25.0  34.5 1034.0 32.9  1.027 -99.9 -99.99 -9.99
2020/01/17 15:54 EST    1.39   1.94   16  335   20  24.6  34.3 1034.1 33.0  1.027 -99.9 -99.99 -9.99
2020/01/17 16:00 EST    1.30   1.77   16  337   22  24.6  34.5 1034.2 32.9  1.027 -99.9 -99.99 -9.99
2020/01/17 16:06 EST    1.20   1.74   13  317   21  25.0  34.5 1034.2 32.9  1.027 -99.9 -99.99 -9.99
2020/01/17 16:12 EST    1.11   1.61   12  332   20  24.8  34.5 1034.5 32.9  1.027 -99.9 -99.99 -9.99
2020/01/17 16:18 EST    1.02   1.51   11  320   21  24.4  34.5 1034.7 32.9  1.027 -99.9 -99.99 -9.99
2020/01/17 16:24 EST    0.93   1.48   11  329   23  24.4  34.5 1034.8 32.9  1.027 -99.9 -99.99 -9.99
2020/01/17 16:30 EST    0.85   1.19   13  321   22  24.3  34.5 1034.8 32.9  1.027 -99.9 -99.99 -9.99
2020/01/17 16:36 EST    0.76   1.19   12  332   21  24.1  34.5 1035.0 32.9  1.027 -99.9 -99.99 -9.99
2020/01/17 16:42 EST    0.69   1.15   12  331   17  24.1  34.5 1035.1 32.9  1.027 -99.9 -99.99 -9.99
2020/01/17 16:48 EST    0.61   0.98   13  324   25  23.9  34.5 1035.0 32.9  1.027 -99.9 -99.99 -9.99
2020/01/17 16:54 EST    0.55   0.98   14  328   22  23.7  34.5 1035.1 33.0  1.027 -99.9 -99.99 -9.99
2020/01/17 17:00 EST    0.48   0.84   12  327   20  23.7  34.5 1035.3 33.0  1.027 -99.9 -99.99 -9.99
2020/01/17 17:06 EST    0.42   0.85   13  338   22  23.9  34.7 1035.4 33.1  1.027 -99.9 -99.99 -9.99
2020/01/17 17:12 EST    0.36   0.78   16  336   20  23.4  34.7 1035.5 33.0  1.027 -99.9 -99.99 -9.99
2020/01/17 17:18 EST    0.31   0.70   13  332   20  23.7  34.7 1035.5 33.0  1.027 -99.9 -99.99 -9.99
2020/01/17 17:24 EST    0.27   0.69   18  332   23  23.2  34.7 1035.5 33.0  1.027 -99.9 -99.99 -9.99
2020/01/17 17:30 EST    0.22   0.56   13  340   23  23.4  34.7 1035.4 33.0  1.027 -99.9 -99.99 -9.99
2020/01/17 17:36 EST    0.18   0.52   15  336   24  23.4  34.7 1035.5 33.0  1.027 -99.9 -99.99 -9.99
2020/01/17 17:42 EST    0.15   0.56   17  336   24  22.8  34.5 1035.5 33.0  1.027 -99.9 -99.99 -9.99
2020/01/17 17:48 EST    0.12   0.64   16  330   23  22.6  34.5 1035.5 33.0  1.027 -99.9 -99.99 -9.99
2020/01/17 17:54 EST    0.09   0.44   15  333   24  22.8  34.7 1035.7 33.0  1.027 -99.9 -99.99 -9.99
2020/01/17 18:00 EST    0.07   0.50   12  341   22  22.8  34.7 1035.8 33.0  1.027 -99.9 -99.99 -9.99
2020/01/17 18:06 EST    0.05   0.47   17  340   24  22.6  34.7 1035.7 33.0  1.027 -99.9 -99.99 -9.99
2020/01/17 18:12 EST    0.04   0.43   14  340   22  22.5  34.5 1035.7 33.0  1.027 -99.9 -99.99 -9.99
2020/01/17 18:18 EST    0.03   0.49   13  350   21  22.5  34.5 1035.8 33.0  1.027 -99.9 -99.99 -9.99
2020/01/17 18:24 EST    0.02   0.36   15  341   24  21.9  34.5 1035.8 33.1  1.027 -99.9 -99.99 -9.99
2020/01/17 18:30 EST    0.01   0.43   14  342   20  22.3  34.5 1035.8 33.1  1.027 -99.9 -99.99 -9.99
2020/01/17 18:36 EST    0.01   0.48   14  339   22  22.3  34.5 1035.9 33.1  1.027 -99.9 -99.99 -9.99
2020/01/17 18:42 EST    0.01   0.43   15  351   22  22.3  34.5 1035.9 33.0  1.027 -99.9 -99.99 -9.99
2020/01/17 18:48 EST    0.01   0.40   15  339   21  22.1  34.5 1035.9 33.1  1.027 -99.9 -99.99 -9.99
2020/01/17 18:54 EST    0.01   0.40   14  339   22  21.9  34.5 1035.9 33.0  1.027 -99.9 -99.99 -9.99
2020/01/17 19:00 EST    0.02   0.39   13  354   19  21.9  34.3 1036.1 33.1  1.027 -99.9 -99.99 -9.99
2020/01/17 19:06 EST    0.02   0.44   17  353   23  21.9  34.3 1036.2 33.1  1.027 -99.9 -99.99 -9.99
2020/01/17 19:12 EST    0.03   0.41   16  347   23  21.7  34.3 1036.2 33.1  1.027 -99.9 -99.99 -9.99
2020/01/17 19:18 EST    0.04   0.44   14  352   21  21.7  34.5 1036.3 33.1  1.027 -99.9 -99.99 -9.99
2020/01/17 19:24 EST    0.05   0.40   15  346   21  21.7  34.5 1036.3 33.2  1.027 -99.9 -99.99 -9.99
2020/01/17 19:30 EST    0.06   0.47   15  350   22  21.4  34.3 1036.3 33.1  1.027 -99.9 -99.99 -9.99
2020/01/17 19:36 EST    0.07   0.40   15  352   25  21.4  34.3 1036.5 33.1  1.027 -99.9 -99.99 -9.99
2020/01/17 19:42 EST    0.08   0.37   14  351   22  21.6  34.3 1036.6 33.1  1.027 -99.9 -99.99 -9.99
2020/01/17 19:48 EST    0.10   0.52   14  336   22  21.4  34.3 1036.6 33.1  1.027 -99.9 -99.99 -9.99
2020/01/17 19:54 EST    0.11   0.44   14    1   21  20.8  34.3 1036.5 33.1  1.027 -99.9 -99.99 -9.99
2020/01/17 20:00 EST    0.13   0.45   14  349   19  21.0  34.5 1036.6 33.2  1.027 -99.9 -99.99 -9.99
2020/01/17 20:06 EST    0.15   0.43   14  348   21  20.8  34.5 1036.6 33.1  1.027 -99.9 -99.99 -9.99
2020/01/17 20:12 EST    0.17   0.42   13  349   19  20.7  34.3 1036.5 33.1  1.027 -99.9 -99.99 -9.99
2020/01/17 20:18 EST    0.19   0.54   13  348   20  20.8  34.3 1036.3 33.1  1.027 -99.9 -99.99 -9.99
2020/01/17 20:24 EST    0.21   0.51   16  356   21  20.5  34.3 1036.4 33.1  1.027 -99.9 -99.99 -9.99
2020/01/17 20:30 EST    0.23   0.54   11  351   20  20.7  34.2 1036.4 33.1  1.027 -99.9 -99.99 -9.99
2020/01/17 20:36 EST    0.26   0.61   15  339   17  20.3  34.2 1036.5 33.2  1.027 -99.9 -99.99 -9.99
2020/01/17 20:42 EST    0.29   0.57   11  356   19  20.5  34.2 1036.6 33.2  1.027 -99.9 -99.99 -9.99
2020/01/17 20:48 EST    0.32   0.61   15  350   18  20.3  34.2 1036.6 33.1  1.027 -99.9 -99.99 -9.99
2020/01/17 20:54 EST    0.35   0.65   13  344   20  20.1  34.0 1036.8 33.1  1.027 -99.9 -99.99 -9.99
2020/01/17 21:00 EST    0.39   0.73   12  343   19  19.9  34.0 1036.7 33.2  1.027 -99.9 -99.99 -9.99
2020/01/17 21:06 EST    0.43   0.71   14  344   20  19.9  34.0 1036.7 33.1  1.027 -99.9 -99.99 -9.99
2020/01/17 21:12 EST    0.47   0.84   11  341   20  19.8  34.0 1036.6 33.1  1.027 -99.9 -99.99 -9.99
2020/01/17 21:18 EST    0.51   0.85   14  337   18  19.4  34.0 1036.5 33.1  1.027 -99.9 -99.99 -9.99
2020/01/17 21:24 EST    0.56   0.95   12  334   19  19.6  34.0 1036.4 33.1  1.027 -99.9 -99.99 -9.99
2020/01/17 21:30 EST    0.61   0.99   13  345   18  19.4  33.8 1036.5 33.1  1.027 -99.9 -99.99 -9.99
2020/01/17 21:36 EST    0.67   1.01   10  325   17  19.2  33.8 1036.6 33.1  1.027 -99.9 -99.99 -9.99
2020/01/17 21:42 EST    0.72   1.18   13  328   19  19.0  33.8 1036.7 33.1  1.027 -99.9 -99.99 -9.99
2020/01/17 21:48 EST    0.79   1.10   12  322   18  19.0  33.8 1036.6 33.1  1.027 -99.9 -99.99 -9.99
2020/01/17 21:54 EST    0.85   1.26   10  333   17  19.2  33.8 1036.7 33.1  1.027 -99.9 -99.99 -9.99
2020/01/17 22:00 EST    0.92   1.36   11  336   18  18.9  33.6 1036.9 33.1  1.027 -99.9 -99.99 -9.99
2020/01/17 22:06 EST    0.99   1.41   11  342   16  18.9  33.6 1037.0 33.1  1.027 -99.9 -99.99 -9.99
2020/01/17 22:12 EST    1.07   1.59   12  337   17  18.5  33.6 1037.0 33.1  1.027 -99.9 -99.99 -9.99
2020/01/17 22:18 EST    1.15   1.60   10  334   20  18.9  33.6 1037.0 33.1  1.027 -99.9 -99.99 -9.99
2020/01/17 22:24 EST    1.23   1.66   16  342   23  18.1  33.6 1037.1 33.1  1.027 -99.9 -99.99 -9.99
2020/01/17 22:30 EST    1.31   1.78   14  345   20  18.5  33.4 1037.0 33.1  1.027 -99.9 -99.99 -9.99
2020/01/17 22:36 EST    1.40   1.86   17  342   21  18.5  33.4 1037.0 33.1  1.027 -99.9 -99.99 -9.99
2020/01/17 22:42 EST    1.49   1.91   14  337   24  18.7  33.4 1036.9 33.1  1.027 -99.9 -99.99 -9.99
2020/01/17 22:48 EST    1.59   2.03   17  342   23  18.7  33.4 1036.9 33.1  1.027 -99.9 -99.99 -9.99
2020/01/17 22:54 EST    1.68   2.23   18  349   23  18.7  33.4 1036.8 33.1  1.027 -99.9 -99.99 -9.99
2020/01/17 23:00 EST    1.78   2.16   16  349   24  19.0  33.3 1036.9 33.2  1.028 -99.9 -99.99 -9.99
2020/01/17 23:06 EST    1.88   2.47   16    0   22  19.0  33.4 1036.9 33.1  1.027 -99.9 -99.99 -9.99
2020/01/17 23:12 EST    1.98   2.54   16  343   24  18.9  33.4 1036.9 33.1  1.027 -99.9 -99.99 -9.99
2020/01/17 23:18 EST    2.08   2.53   12  356   20  19.2  33.4 1036.8 33.1  1.027 -99.9 -99.99 -9.99
2020/01/17 23:24 EST    2.18   2.72   15    0   20  18.7  33.4 1036.7 33.1  1.027 -99.9 -99.99 -9.99
2020/01/17 23:30 EST    2.29   2.82   14  351   22  18.7  33.3 1036.7 33.2  1.028 -99.9 -99.99 -9.99
2020/01/17 23:36 EST    2.39   2.98   11  357   21  18.9  33.4 1036.7 33.1  1.027 -99.9 -99.99 -9.99
2020/01/17 23:42 EST    2.49   3.11   12    4   18  18.9  33.4 1036.8 33.1  1.027 -99.9 -99.99 -9.99
2020/01/17 23:48 EST    2.59   3.24   13  349   20  18.7  33.4 1036.9 33.1  1.027 -99.9 -99.99 -9.99
2020/01/17 23:54 EST    2.69   3.35   13  346   17  18.9  33.4 1036.9 33.2  1.027 -99.9 -99.99 -9.99
2020/01/18 00:00 EST    2.78   3.45    9  334   17  19.0  33.4 1036.9 33.2  1.027 -99.9 -99.99 -9.99
2020/01/18 00:06 EST    2.88   3.54   11  337   15  18.3  33.4 1036.7 33.2  1.027 -99.9 -99.99 -9.99
2020/01/18 00:12 EST    2.97   3.61   11  345   16  18.1  33.4 1036.6 33.2  1.028 -99.9 -99.99 -9.99
2020/01/18 00:18 EST    3.06   3.70   11  336   15  18.1  33.6 1036.4 33.2  1.027 -99.9 -99.99 -9.99
2020/01/18 00:24 EST    3.14   3.78    9  330   17  18.3  33.4 1036.4 33.2  1.028 -99.9 -99.99 -9.99
2020/01/18 00:30 EST    3.22   3.91   11  330   15  18.1  33.6 1036.2 33.2  1.028 -99.9 -99.99 -9.99
2020/01/18 00:36 EST    3.29   4.03   10  330   17  18.3  33.8 1036.0 33.2  1.028 -99.9 -99.99 -9.99
2020/01/18 00:42 EST    3.36   4.12   10  327   14  18.0  33.6 1036.0 33.3  1.028 -99.9 -99.99 -9.99
2020/01/18 00:48 EST    3.43   4.18    8  337   16  18.1  33.6 1036.0 33.2  1.028 -99.9 -99.99 -9.99
2020/01/18 00:54 EST    3.49   4.16    7  326   15  18.1  33.4 1036.1 33.3  1.028 -99.9 -99.99 -9.99
2020/01/18 01:00 EST    3.54   4.18    8  323   14  17.8  33.6 1036.1 33.2  1.027 -99.9 -99.99 -9.99
2020/01/18 01:06 EST    3.59   4.29    8  336   15  18.0  33.4 1036.0 33.3  1.028 -99.9 -99.99 -9.99
2020/01/18 01:12 EST    3.63   4.28    9  335   14  18.0  33.6 1036.0 33.2  1.028 -99.9 -99.99 -9.99
2020/01/18 01:18 EST    3.66   4.28   11  339   14  18.0  33.6 1036.0 33.3  1.028 -99.9 -99.99 -9.99
2020/01/18 01:24 EST    3.69   4.40   11  339   15  17.6  33.8 1036.0 33.3  1.028 -99.9 -99.99 -9.99
2020/01/18 01:30 EST    3.71   4.42    7  352   13  18.0  34.0 1036.0 33.2  1.028 -99.9 -99.99 -9.99
2020/01/18 01:36 EST    3.73   4.41    8  333   12  18.0  34.0 1036.0 33.2  1.028 -99.9 -99.99 -9.99
2020/01/18 01:42 EST    3.73   4.47    9  348   13  18.3  34.0 1036.1 33.2  1.028 -99.9 -99.99 -9.99
2020/01/18 01:48 EST    3.73   4.47    8  344   13  18.0  34.0 1036.2 33.3  1.028 -99.9 -99.99 -9.99
2020/01/18 01:54 EST    3.73   4.46    8  349   12  18.1  33.8 1036.3 33.1  1.027 -99.9 -99.99 -9.99
2020/01/18 02:00 EST    3.71   4.37    9  335   13  17.8  33.4 1036.4 33.1  1.027 -99.9 -99.99 -9.99
2020/01/18 02:06 EST    3.69   4.39    7  344   13  18.3  33.4 1036.5 33.1  1.027 -99.9 -99.99 -9.99
2020/01/18 02:12 EST    3.67   4.43    8  346   11  18.0  33.1 1036.6 33.2  1.028 -99.9 -99.99 -9.99
2020/01/18 02:18 EST    3.63   4.34    9  328   12  18.0  33.3 1036.5 33.1  1.027 -99.9 -99.99 -9.99
2020/01/18 02:24 EST    3.59   4.28   10  345   12  17.8  33.3 1036.5 33.2  1.028 -99.9 -99.99 -9.99
2020/01/18 02:30 EST    3.55   4.23    5  329   13  17.8  33.1 1036.4 33.1  1.027 -99.9 -99.99 -9.99
2020/01/18 02:36 EST    3.50   4.15    9  337   12  17.2  33.1 1036.4 33.2  1.028 -99.9 -99.99 -9.99
2020/01/18 02:42 EST    3.44   4.11   10  337   13  17.1  33.1 1036.5 33.2  1.028 -99.9 -99.99 -9.99
2020/01/18 02:48 EST    3.38   4.08    9  324   12  17.2  32.9 1036.4 33.1  1.027 -99.9 -99.99 -9.99
2020/01/18 02:54 EST    3.31   3.99    8  330   13  17.4  32.7 1036.3 33.1  1.028 -99.9 -99.99 -9.99
2020/01/18 03:00 EST    3.24   3.91    9  323   12  17.4  32.9 1036.4 33.1  1.027 -99.9 -99.99 -9.99
2020/01/18 03:06 EST    3.17   3.85    7  333   13  17.2  32.9 1036.2 33.1  1.027 -99.9 -99.99 -9.99
2020/01/18 03:12 EST    3.09   3.81    9  329   12  17.1  32.9 1035.9 33.1  1.027 -99.9 -99.99 -9.99
2020/01/18 03:18 EST    3.01   3.65    7  327   12  17.2  32.7 1036.0 33.1  1.027 -99.9 -99.99 -9.99
2020/01/18 03:24 EST    2.92   3.55    7  325   11  17.2  32.7 1036.1 33.0  1.027 -99.9 -99.99 -9.99
2020/01/18 03:30 EST    2.83   3.51    8  324   11  17.1  32.5 1036.1 33.0  1.027 -99.9 -99.99 -9.99
2020/01/18 03:36 EST    2.74   3.40    8  318   11  17.4  32.5 1036.0 33.1  1.027 -99.9 -99.99 -9.99
2020/01/18 03:42 EST    2.65   3.30    8  338   12  17.1  32.7 1036.0 33.2  1.028 -99.9 -99.99 -9.99
2020/01/18 03:48 EST    2.55   3.28    9  322   12  16.9  32.9 1036.0 33.1  1.027 -99.9 -99.99 -9.99
2020/01/18 03:54 EST    2.46   3.16    7  323   12  17.1  32.9 1036.0 33.1  1.027 -99.9 -99.99 -9.99
2020/01/18 04:00 EST    2.36   3.01    8  317   12  16.7  32.9 1036.1 33.1  1.027 -99.9 -99.99 -9.99
2020/01/18 04:06 EST    2.26   2.87    8  314    9  16.7  32.9 1036.0 33.1  1.027 -99.9 -99.99 -9.99
2020/01/18 04:12 EST    2.16   2.75    8  333   12  17.1  32.9 1035.9 33.0  1.027 -99.9 -99.99 -9.99
2020/01/18 04:18 EST    2.07   2.63    8  314   11  16.5  32.7 1035.8 33.2  1.028 -99.9 -99.99 -9.99
2020/01/18 04:24 EST    1.97   2.57    6  334   12  16.7  32.9 1035.6 33.0  1.027 -99.9 -99.99 -9.99
2020/01/18 04:30 EST    1.87   2.49    6  341    9  16.7  32.7 1035.5 33.1  1.027 -99.9 -99.99 -9.99
2020/01/18 04:36 EST    1.78   2.38    7  336    8  16.9  32.7 1035.4 33.0  1.027 -99.9 -99.99 -9.99
2020/01/18 04:42 EST    1.68   2.33    5  330   11  16.9  32.7 1035.6 33.0  1.027 -99.9 -99.99 -9.99
2020/01/18 04:48 EST    1.59   2.18    5  332    9  17.1  32.7 1035.5 33.0  1.027 -99.9 -99.99 -9.99
2020/01/18 04:54 EST    1.50   2.12    7  332    9  16.9  32.5 1035.6 33.1  1.027 -99.9 -99.99 -9.99
2020/01/18 05:00 EST    1.42   2.06    7  332   10  16.9  32.5 1035.6 33.0  1.027 -99.9 -99.99 -9.99
2020/01/18 05:06 EST    1.33   1.93    7  331   11  17.1  32.5 1035.6 33.1  1.027 -99.9 -99.99 -9.99
2020/01/18 05:12 EST    1.25   1.82    8  344   10  17.2  32.5 1035.5 33.1  1.027 -99.9 -99.99 -9.99
2020/01/18 05:18 EST    1.17   1.79    8  352   11  17.2  32.5 1035.4 33.1  1.027 -99.9 -99.99 -9.99
2020/01/18 05:24 EST    1.10   1.73    8    8   12  17.2  32.5 1035.3 33.0  1.027 -99.9 -99.99 -9.99
2020/01/18 05:30 EST    1.03   1.67    9  355   12  17.4  32.5 1035.5 33.0  1.027 -99.9 -99.99 -9.99
2020/01/18 05:36 EST    0.96   1.56    8  347   12  17.2  32.5 1035.6 33.0  1.027 -99.9 -99.99 -9.99
2020/01/18 05:42 EST    0.90   1.52    7  348   13  17.1  32.5 1035.6 33.0  1.027 -99.9 -99.99 -9.99
2020/01/18 05:48 EST    0.84   1.43    8  324   10  17.1  32.5 1035.6 33.0  1.027 -99.9 -99.99 -9.99
2020/01/18 05:54 EST    0.78   1.26    9  342   12  16.7  32.5 1035.6 33.0  1.027 -99.9 -99.99 -9.99
2020/01/18 06:00 EST    0.73   1.25    8  319   12  16.7  32.5 1035.6 33.0  1.027 -99.9 -99.99 -9.99
2020/01/18 06:06 EST    0.68   1.17    6  332   11  16.7  32.5 1035.5 33.0  1.027 -99.9 -99.99 -9.99
2020/01/18 06:12 EST    0.64   1.16    7  324   11  16.5  32.5 1035.6 33.1  1.027 -99.9 -99.99 -9.99
2020/01/18 06:18 EST    0.60   1.14    7  326   10  16.7  32.7 1035.7 33.1  1.027 -99.9 -99.99 -9.99
2020/01/18 06:24 EST    0.56   1.18    7  318   12  16.5  32.7 1035.8 33.0  1.027 -99.9 -99.99 -9.99
2020/01/18 06:30 EST    0.52   1.11    9  308   11  16.3  33.1 1035.8 33.2  1.028 -99.9 -99.99 -9.99
2020/01/18 06:36 EST    0.49   1.09    6  315   11  16.5  33.1 1035.8 33.2  1.028 -99.9 -99.99 -9.99
2020/01/18 06:42 EST    0.46   1.16    6  326   10  16.3  33.3 1035.8 33.2  1.028 -99.9 -99.99 -9.99
2020/01/18 06:48 EST    0.44   1.05    6  324    9  16.3  33.4 1035.7 33.2  1.028 -99.9 -99.99 -9.99
2020/01/18 06:54 EST    0.42   1.10    5  328    9  16.3  33.4 1035.7 33.2  1.028 -99.9 -99.99 -9.99
2020/01/18 07:00 EST    0.40   1.20    8  342    9  16.5  33.4 1035.6 33.2  1.028 -99.9 -99.99 -9.99
2020/01/18 07:06 EST    0.38   1.06    5  317   10  16.5  33.4 1035.6 33.3  1.028 -99.9 -99.99 -9.99
2020/01/18 07:12 EST    0.36   1.16    6  330   11  16.5  33.1 1035.5 33.1  1.027 -99.9 -99.99 -9.99
2020/01/18 07:18 EST    0.35   1.14    7  332   10  16.3  33.3 1035.4 33.1  1.027 -99.9 -99.99 -9.99
2020/01/18 07:24 EST    0.33   1.08    5  317   10  16.5  33.4 1035.5 33.4  1.028 -99.9 -99.99 -9.99
2020/01/18 07:30 EST    0.32   1.08    8  328   10  16.5  33.1 1035.4 33.2  1.028 -99.9 -99.99 -9.99
2020/01/18 07:36 EST    0.31   1.08    7  338   11  16.9  33.4 1035.2 33.4  1.028 -99.9 -99.99 -9.99
2020/01/18 07:42 EST    0.30   1.07    4  325   10  16.7  33.8 1035.2 33.1  1.027 -99.9 -99.99 -9.99
2020/01/18 07:48 EST    0.30   0.99    6  329    8  16.7  33.8 1035.2 33.5  1.028 -99.9 -99.99 -9.99
2020/01/18 07:54 EST    0.29   1.09    6  351    8  16.9  33.8 1034.9 33.3  1.028 -99.9 -99.99 -9.99
2020/01/18 08:00 EST    0.29   0.92    4  342    9  16.7  33.4 1034.8 33.2  1.028 -99.9 -99.99 -9.99
2020/01/18 08:06 EST    0.28   1.16    6  326    8  16.9  33.8 1034.8 33.3  1.028 -99.9 -99.99 -9.99
2020/01/18 08:12 EST    0.28   1.11    6  347    9  17.2  34.2 1034.6 33.3  1.028 -99.9 -99.99 -9.99
2020/01/18 08:18 EST    0.28   1.01    5  346    7  17.2  34.3 1034.5 33.2  1.028 -99.9 -99.99 -9.99
2020/01/18 08:24 EST    0.28   1.14    4  357    8  17.4  34.5 1034.4 33.5  1.028 -99.9 -99.99 -9.99
2020/01/18 08:30 EST    0.28   0.98    5  319    8  17.2  34.3 1034.2 33.3  1.028 -99.9 -99.99 -9.99
2020/01/18 08:36 EST    0.28   1.03    4  354    7  17.8  34.3 1034.2 33.5  1.028 -99.9 -99.99 -9.99
2020/01/18 08:42 EST    0.28   1.03    4    7    5  18.0  34.7 1034.1 33.5  1.028 -99.9 -99.99 -9.99
2020/01/18 08:48 EST    0.29   1.04    5  358    8  18.0  35.1 1034.0 33.4  1.028 -99.9 -99.99 -9.99
2020/01/18 08:54 EST    0.30   1.05    7    5    9  17.6  35.1 1034.1 33.5  1.028 -99.9 -99.99 -9.99
2020/01/18 09:00 EST    0.30   1.11    5   11    8  17.6  34.9 1034.2 33.5  1.028 -99.9 -99.99 -9.99
2020/01/18 09:06 EST    0.32   1.08    5   25    8  17.6  34.7 1034.1 33.3  1.028 -99.9 -99.99 -9.99
2020/01/18 09:12 EST    0.33   0.98    6    8    7  17.8  34.7 1034.1 33.4  1.028 -99.9 -99.99 -9.99
2020/01/18 09:18 EST    0.35   1.13    2   13    8  17.8  34.0 1034.1 33.4  1.028 -99.9 -99.99 -9.99
2020/01/18 09:24 EST    0.37   1.08    6   19    7  17.8  33.6 1034.1 33.2  1.028 -99.9 -99.99 -9.99
2020/01/18 09:30 EST    0.39   0.99    4   24    7  18.1  33.6 1034.0 33.4  1.028 -99.9 -99.99 -9.99
2020/01/18 09:36 EST    0.41   1.17    5    9    7  18.1  34.0 1033.8 33.1  1.027 -99.9 -99.99 -9.99
2020/01/18 09:42 EST    0.44   1.10    4   21    8  18.0  34.2 1033.6 33.4  1.028 -99.9 -99.99 -9.99
2020/01/18 09:48 EST    0.47   1.13    4  340    6  18.1  33.8 1033.6 33.3  1.028 -99.9 -99.99 -9.99
2020/01/18 09:54 EST    0.51   1.32    1    8    5  18.7  33.4 1033.6 33.1  1.027 -99.9 -99.99 -9.99
2020/01/18 10:00 EST    0.54   1.23    2  351    5  18.1  33.1 1033.5 33.2  1.028 -99.9 -99.99 -9.99
2020/01/18 10:06 EST    0.58   1.25    4   23    5  18.1  33.1 1033.3 33.2  1.028 -99.9 -99.99 -9.99
2020/01/18 10:12 EST    0.63   1.36    1   34    4  18.1  33.1 1033.4 33.3  1.028 -99.9 -99.99 -9.99
2020/01/18 10:18 EST    0.68   1.39    0   48    1  18.7  33.4 1033.3 33.2  1.028 -99.9 -99.99 -9.99
2020/01/18 10:24 EST    0.73   1.33    2    6    4  18.5  33.4 1033.2 33.2  1.028 -99.9 -99.99 -9.99
2020/01/18 10:30 EST    0.79   1.50    2   12    3  18.7  33.4 1033.1 33.2  1.028 -99.9 -99.99 -9.99
2020/01/18 10:36 EST    0.84   1.38    2   11    3  18.7  33.6 1032.8 33.3  1.028 -99.9 -99.99 -9.99
2020/01/18 10:42 EST    0.91   1.40    3   27    4  18.5  33.6 1032.6 33.2  1.028 -99.9 -99.99 -9.99
2020/01/18 10:48 EST    0.97   1.54    1   27    4  18.5  33.6 1032.4 33.2  1.028 -99.9 -99.99 -9.99
2020/01/18 10:54 EST    1.04   1.49    0   46    1  19.2  33.6 1032.1 33.3  1.028 -99.9 -99.99 -9.99
2020/01/18 11:00 EST    1.11   1.64    1  346    3  19.4  33.6 1031.8 33.3  1.028 -99.9 -99.99 -9.99
2020/01/18 11:06 EST    1.19   1.83    4   14    6  19.2  33.6 1031.9 33.2  1.028 -99.9 -99.99 -9.99
2020/01/18 11:12 EST    1.27   1.70    3   17    4  19.6  33.4 1031.8 33.3  1.028 -99.9 -99.99 -9.99
2020/01/18 11:18 EST    1.35   1.78    3  227    4  20.3  33.6 1031.7 33.3  1.028 -99.9 -99.99 -9.99
2020/01/18 11:24 EST    1.43   1.98    2  171    4  21.9  33.6 1031.5 33.3  1.028 -99.9 -99.99 -9.99
2020/01/18 11:30 EST    1.51   1.87    5  164    6  20.7  33.6 1031.3 33.3  1.028 -99.9 -99.99 -9.99
2020/01/18 11:36 EST    1.60   2.06    2  188    6  21.0  33.6 1031.1 33.3  1.028 -99.9 -99.99 -9.99
2020/01/18 11:42 EST    1.69   2.26    2  156    5  21.0  34.0 1030.9 33.4  1.028 -99.9 -99.99 -9.99
2020/01/18 11:48 EST    1.77   2.17    1  248    3  21.2  33.8 1030.9 33.4  1.028 -99.9 -99.99 -9.99
2020/01/18 11:54 EST    1.86   2.33    3  144    5  21.0  33.6 1030.8 33.2  1.028 -99.9 -99.99 -9.99
2020/01/18 12:00 EST    1.95   2.51    2  142    4  20.8  34.0 1030.8 33.5  1.028 -99.9 -99.99 -9.99
2020/01/18 12:06 EST    2.04   2.58    6  189    7  21.4  34.3 1030.8 33.4  1.028 -99.9 -99.99 -9.99
2020/01/18 12:12 EST    2.12   2.66    7  189    8  21.6  34.2 1030.8 33.3  1.028 -99.9 -99.99 -9.99
2020/01/18 12:18 EST    2.21   2.84    4  204    9  21.2  34.5 1030.7 33.4  1.028 -99.9 -99.99 -9.99
2020/01/18 12:24 EST    2.29   2.91    7  204    8  21.4  34.7 1030.5 33.5  1.028 -99.9 -99.99 -9.99
2020/01/18 12:30 EST    2.37   2.91    6  184    8  21.7  34.7 1030.4 33.5  1.028 -99.9 -99.99 -9.99
2020/01/18 12:36 EST    2.45   3.05    3  154    7  21.4  34.7 1030.0 33.3  1.028 -99.9 -99.99 -9.99
2020/01/18 12:42 EST    2.53   3.14    4  193    6  22.1  34.9 1029.7 33.4  1.028 -99.9 -99.99 -9.99
2020/01/18 12:48 EST    2.60   3.21    4  181    4  22.1  34.7 1029.6 33.4  1.028 -99.9 -99.99 -9.99
2020/01/18 12:54 EST    2.67   3.30    3  169    6  21.7  34.2 1029.6 33.4  1.028 -99.9 -99.99 -9.99
2020/01/18 13:00 EST    2.74   3.41    4  182    7  22.1  34.0 1029.5 33.3  1.028 -99.9 -99.99 -9.99
2020/01/18 13:06 EST    2.80   3.46    3  187    7  22.1  33.8 1029.4 33.4  1.028 -99.9 -99.99 -9.99
2020/01/18 13:12 EST    2.86   3.50    6  207    8  22.5  34.0 1029.3 33.3  1.028 -99.9 -99.99 -9.99
2020/01/18 13:18 EST    2.91   3.53    4  176    8  22.5  34.0 1029.2 33.3  1.028 -99.9 -99.99 -9.99
2020/01/18 13:24 EST    2.95   3.56    6  200    7  22.3  34.2 1029.1 33.4  1.028 -99.9 -99.99 -9.99
2020/01/18 13:30 EST    2.99   3.53    4  156   10  22.3  34.2 1029.1 33.3  1.028 -99.9 -99.99 -9.99
2020/01/18 13:36 EST    3.03   3.66    2  127    4  22.3  34.2 1028.9 33.3  1.028 -99.9 -99.99 -9.99
2020/01/18 13:42 EST    3.06   3.64    3  144    4  22.3  34.0 1028.9 33.3  1.028 -99.9 -99.99 -9.99
2020/01/18 13:48 EST    3.08   3.65    2  212    4  22.6  34.0 1028.9 33.3  1.028 -99.9 -99.99 -9.99
2020/01/18 13:54 EST    3.10   3.76    0   57    2  22.8  33.8 1028.7 33.3  1.028 -99.9 -99.99 -9.99
2020/01/18 14:00 EST    3.11   3.77    1  118    2  23.2  33.8 1028.7 33.3  1.028 -99.9 -99.99 -9.99
2020/01/18 14:06 EST    3.11   3.62    2  130    3  23.4  33.8 1028.5 33.3  1.028 -99.9 -99.99 -9.99
2020/01/18 14:12 EST    3.11   3.69    2  161    4  23.7  33.8 1028.4 33.3  1.028 -99.9 -99.99 -9.99
2020/01/18 14:18 EST    3.10   3.74    4  191    6  24.4  33.8 1028.3 33.2  1.028 -99.9 -99.99 -9.99
2020/01/18 14:24 EST    3.09   3.64    5  205    8  25.0  33.8 1028.2 33.2  1.028 -99.9 -99.99 -9.99
2020/01/18 14:30 EST    3.07   3.72    9  209   11  25.0  33.8 1028.2 33.3  1.028 -99.9 -99.99 -9.99
2020/01/18 14:36 EST    3.04   3.64    8  198   11  25.2  33.8 1028.1 33.3  1.028 -99.9 -99.99 -9.99
2020/01/18 14:42 EST    3.01   3.62    7  194    9  25.9  34.2 1027.9 33.3  1.028 -99.9 -99.99 -9.99
2020/01/18 14:48 EST    2.98   3.59    7  185   11  25.7  34.3 1027.7 33.3  1.028 -99.9 -99.99 -9.99
2020/01/18 14:54 EST    2.93   3.52    8  209    9  25.9  34.3 1027.8 33.3  1.028 -99.9 -99.99 -9.99
2020/01/18 15:00 EST    2.89   3.51    5  183   10  26.1  34.3 1027.5 33.3  1.028 -99.9 -99.99 -9.99
2020/01/18 15:06 EST    2.83   3.48    7  211   10  26.1  34.2 1027.3 33.3  1.028 -99.9 -99.99 -9.99
2020/01/18 15:12 EST    2.78   3.33    9  201   11  26.2  34.2 1027.4 33.3  1.028 -99.9 -99.99 -9.99
2020/01/18 15:18 EST    2.72   3.35    8  215   11  25.9  34.2 1027.3 33.3  1.028 -99.9 -99.99 -9.99
2020/01/18 15:24 EST    2.65   3.29    8  204   11  26.2  34.2 1027.2 33.2  1.028 -99.9 -99.99 -9.99
2020/01/18 15:30 EST    2.58   3.18    9  222   12  26.4  34.0 1027.1 33.3  1.028 -99.9 -99.99 -9.99
2020/01/18 15:36 EST    2.51   3.14    9  215   10  27.0  34.0 1026.9 33.2  1.028 -99.9 -99.99 -9.99
2020/01/18 15:42 EST    2.43   3.03    9  202   12  26.6  34.0 1026.8 33.2  1.028 -99.9 -99.99 -9.99
2020/01/18 15:48 EST    2.35   2.92    9  217   13  26.4  34.0 1026.5 33.2  1.028 -99.9 -99.99 -9.99
2020/01/18 15:54 EST    2.27   2.82    8  218   11  26.4  33.8 1026.4 33.3  1.028 -99.9 -99.99 -9.99
2020/01/18 16:00 EST    2.19   2.79    8  202   11  27.0  33.8 1026.1 33.3  1.028 -99.9 -99.99 -9.99
2020/01/18 16:06 EST    2.10   2.67    9  221   12  26.8  33.8 1026.1 33.3  1.028 -99.9 -99.99 -9.99
2020/01/18 16:12 EST    2.02   2.57    5  193   10  26.8  33.8 1026.0 33.2  1.028 -99.9 -99.99 -9.99
2020/01/18 16:18 EST    1.93   2.51    6  236    8  26.8  33.8 1025.8 33.3  1.028 -99.9 -99.99 -9.99
2020/01/18 16:24 EST    1.84   2.35    6  188    8  26.8  33.8 1025.6 33.2  1.028 -99.9 -99.99 -9.99
2020/01/18 16:30 EST    1.75   2.32    8  176    9  27.0  33.8 1025.5 33.2  1.028 -99.9 -99.99 -9.99
2020/01/18 16:36 EST    1.66   2.21    6  189    9  27.0  33.8 1025.2 33.3  1.028 -99.9 -99.99 -9.99
2020/01/18 16:42 EST    1.57   2.16    7  176    9  26.8  33.8 1024.7 33.3  1.028 -99.9 -99.99 -9.99
2020/01/18 16:48 EST    1.48   2.16    6  158    8  26.6  33.8 1024.3 33.1  1.027 -99.9 -99.99 -9.99
2020/01/18 16:54 EST    1.39   2.01    5  127    8  25.5  33.4 1024.0 33.2  1.028 -99.9 -99.99 -9.99
2020/01/18 17:00 EST    1.30   1.88    5  113    7  25.2  33.4 1023.4 33.2  1.028 -99.9 -99.99 -9.99
2020/01/18 17:06 EST    1.22   1.84    4  127    7  25.0  33.6 1023.2 33.2  1.028 -99.9 -99.99 -9.99
2020/01/18 17:12 EST    1.13   1.78    5  114    7  25.2  33.6 1022.7 33.1  1.027 -99.9 -99.99 -9.99
2020/01/18 17:18 EST    1.05   1.68    3  103    6  25.5  33.6 1022.7 33.2  1.027 -99.9 -99.99 -9.99
2020/01/18 17:24 EST    0.97   1.57    4  112    6  25.5  33.6 1022.6 33.2  1.028 -99.9 -99.99 -9.99
2020/01/18 17:30 EST    0.89   1.56    4  116    5  25.3  33.6 1022.4 33.2  1.028 -99.9 -99.99 -9.99
2020/01/18 17:36 EST    0.82   1.76    4  137    6  25.5  33.6 1022.5 33.2  1.028 -99.9 -99.99 -9.99
2020/01/18 17:42 EST    0.75   1.65    4  137    6  25.7  33.6 1022.3 33.2  1.028 -99.9 -99.99 -9.99
2020/01/18 17:48 EST    0.68   1.34    3  129    4  25.9  33.6 1022.0 33.2  1.028 -99.9 -99.99 -9.99
2020/01/18 17:54 EST    0.62   1.48    4  130    5  26.4  33.6 1021.6 33.1  1.027 -99.9 -99.99 -9.99
2020/01/18 18:00 EST    0.56   1.46    6  129    9  27.7  33.6 1021.3 33.1  1.027 -99.9 -99.99 -9.99
2020/01/18 18:06 EST    0.50   1.24    7  131    9  28.4  33.6 1021.0 33.2  1.027 -99.9 -99.99 -9.99
2020/01/18 18:12 EST    0.45   1.24    8  134   12  28.8  33.6 1020.7 33.1  1.027 -99.9 -99.99 -9.99
2020/01/18 18:18 EST    0.40   1.30   10  137   13  29.3  33.6 1020.3 33.2  1.027 -99.9 -99.99 -9.99
2020/01/18 18:24 EST    0.36   1.09    9  142   13  29.8  33.6 1019.9 33.2  1.028 -99.9 -99.99 -9.99
2020/01/18 18:30 EST    0.32   1.22   11  144   14  30.4  33.6 1019.8 33.2  1.028 -99.9 -99.99 -9.99
2020/01/18 18:36 EST    0.28   1.32   11  149   16  30.7  33.6 1019.6 33.2  1.028 -99.9 -99.99 -9.99
2020/01/18 18:42 EST    0.25 -99.99 -999 -999 -999 -99.9 -99.9 -999.9 -9.9 -9.999 -99.9 -99.99 -9.99